<?xml version="1.0" encoding="UTF-8" standalone="no" ?>
<gpx xmlns="http://www.topografix.com/GPX/1/1" xmlns:xsi="http://www.w3.org/2001/XMLSchema-instance" xsi:schemaLocation="http://www.topografix.com/GPX/1/1 http://www.topografix.com/GPX/1/1/gpx.xsd" version="1.1" creator="VisuGPX - https://www.visugpx.com">
  <metadata>
    <name>Bouguenais Marche 1 janv. 2022 à 15:51</name>
  </metadata>
  <trk>
    <name><![CDATA[Bouguenais Marche 1 janv. 2022 à 15:51]]></name>
    <trkseg>
      <trkpt lat="47.1863" lon="-1.58133">
        <ele>36.068420410156</ele>
        <time>2022-01-01T14:51:30Z</time>
      </trkpt>
      <trkpt lat="47.18633" lon="-1.5813">
        <ele>-6.1710815429688</ele>
        <time>2022-01-01T14:51:38Z</time>
      </trkpt>
      <trkpt lat="47.18633" lon="-1.5813">
        <ele>-6.1710815429688</ele>
        <time>2022-01-01T14:51:39Z</time>
      </trkpt>
      <trkpt lat="47.12683" lon="-1.57963">
        <ele>20.257263183594</ele>
        <time>2022-01-02T07:49:29Z</time>
      </trkpt>
      <trkpt lat="47.12684" lon="-1.57961">
        <ele>24.949890136719</ele>
        <time>2022-01-02T07:49:41Z</time>
      </trkpt>
      <trkpt lat="47.12684" lon="-1.57961">
        <ele>24.949890136719</ele>
        <time>2022-01-02T07:49:41Z</time>
      </trkpt>
      <trkpt lat="47.12684" lon="-1.57962">
        <ele>24.306701660156</ele>
        <time>2022-01-02T07:49:43Z</time>
      </trkpt>
      <trkpt lat="47.12691" lon="-1.57956">
        <ele>10.360656738281</ele>
        <time>2022-01-02T07:50:02Z</time>
      </trkpt>
      <trkpt lat="47.12697" lon="-1.57946">
        <ele>11.578308105469</ele>
        <time>2022-01-02T07:50:14Z</time>
      </trkpt>
      <trkpt lat="47.12695" lon="-1.57934">
        <ele>11.305969238281</ele>
        <time>2022-01-02T07:50:28Z</time>
      </trkpt>
      <trkpt lat="47.12693" lon="-1.57923">
        <ele>10.794067382812</ele>
        <time>2022-01-02T07:50:37Z</time>
      </trkpt>
      <trkpt lat="47.1269" lon="-1.5791">
        <ele>11.25</ele>
        <time>2022-01-02T07:50:46Z</time>
      </trkpt>
      <trkpt lat="47.12688" lon="-1.57898">
        <ele>10.975952148438</ele>
        <time>2022-01-02T07:50:55Z</time>
      </trkpt>
      <trkpt lat="47.12686" lon="-1.57886">
        <ele>9.9231567382812</ele>
        <time>2022-01-02T07:51:04Z</time>
      </trkpt>
      <trkpt lat="47.12685" lon="-1.57874">
        <ele>9.3587036132812</ele>
        <time>2022-01-02T07:51:12Z</time>
      </trkpt>
      <trkpt lat="47.12683" lon="-1.57862">
        <ele>8.813720703125</ele>
        <time>2022-01-02T07:51:20Z</time>
      </trkpt>
      <trkpt lat="47.1268" lon="-1.57851">
        <ele>9.634765625</ele>
        <time>2022-01-02T07:51:27Z</time>
      </trkpt>
      <trkpt lat="47.12675" lon="-1.57841">
        <ele>9.2025756835938</ele>
        <time>2022-01-02T07:51:34Z</time>
      </trkpt>
      <trkpt lat="47.12668" lon="-1.57834">
        <ele>9.15576171875</ele>
        <time>2022-01-02T07:51:42Z</time>
      </trkpt>
      <trkpt lat="47.12662" lon="-1.57824">
        <ele>8.6734008789062</ele>
        <time>2022-01-02T07:51:50Z</time>
      </trkpt>
      <trkpt lat="47.12656" lon="-1.57816">
        <ele>8.5217895507812</ele>
        <time>2022-01-02T07:51:58Z</time>
      </trkpt>
      <trkpt lat="47.1265" lon="-1.57808">
        <ele>8.3171997070312</ele>
        <time>2022-01-02T07:52:06Z</time>
      </trkpt>
      <trkpt lat="47.12642" lon="-1.57801">
        <ele>9.1470336914062</ele>
        <time>2022-01-02T07:52:14Z</time>
      </trkpt>
      <trkpt lat="47.12634" lon="-1.57796">
        <ele>9.69091796875</ele>
        <time>2022-01-02T07:52:21Z</time>
      </trkpt>
      <trkpt lat="47.12627" lon="-1.57792">
        <ele>10.492309570312</ele>
        <time>2022-01-02T07:52:28Z</time>
      </trkpt>
      <trkpt lat="47.12621" lon="-1.57782">
        <ele>10.602233886719</ele>
        <time>2022-01-02T07:52:37Z</time>
      </trkpt>
      <trkpt lat="47.1262" lon="-1.5777">
        <ele>10.242736816406</ele>
        <time>2022-01-02T07:52:45Z</time>
      </trkpt>
      <trkpt lat="47.12615" lon="-1.57759">
        <ele>10.19482421875</ele>
        <time>2022-01-02T07:52:53Z</time>
      </trkpt>
      <trkpt lat="47.12609" lon="-1.5775">
        <ele>9.6553955078125</ele>
        <time>2022-01-02T07:53:02Z</time>
      </trkpt>
      <trkpt lat="47.12602" lon="-1.57742">
        <ele>9.9096069335938</ele>
        <time>2022-01-02T07:53:09Z</time>
      </trkpt>
      <trkpt lat="47.12595" lon="-1.57735">
        <ele>10.98291015625</ele>
        <time>2022-01-02T07:53:16Z</time>
      </trkpt>
      <trkpt lat="47.12587" lon="-1.57731">
        <ele>11.394287109375</ele>
        <time>2022-01-02T07:53:24Z</time>
      </trkpt>
      <trkpt lat="47.12579" lon="-1.57727">
        <ele>12.303955078125</ele>
        <time>2022-01-02T07:53:32Z</time>
      </trkpt>
      <trkpt lat="47.12571" lon="-1.57724">
        <ele>12.509460449219</ele>
        <time>2022-01-02T07:53:40Z</time>
      </trkpt>
      <trkpt lat="47.12563" lon="-1.57721">
        <ele>12.717102050781</ele>
        <time>2022-01-02T07:53:48Z</time>
      </trkpt>
      <trkpt lat="47.12555" lon="-1.57719">
        <ele>12.730834960938</ele>
        <time>2022-01-02T07:53:55Z</time>
      </trkpt>
      <trkpt lat="47.12547" lon="-1.57716">
        <ele>12.448791503906</ele>
        <time>2022-01-02T07:54:03Z</time>
      </trkpt>
      <trkpt lat="47.12539" lon="-1.57713">
        <ele>12.128356933594</ele>
        <time>2022-01-02T07:54:10Z</time>
      </trkpt>
      <trkpt lat="47.12532" lon="-1.57707">
        <ele>12.999938964844</ele>
        <time>2022-01-02T07:54:17Z</time>
      </trkpt>
      <trkpt lat="47.12529" lon="-1.57696">
        <ele>14.851013183594</ele>
        <time>2022-01-02T07:54:23Z</time>
      </trkpt>
      <trkpt lat="47.12526" lon="-1.57685">
        <ele>15.369201660156</ele>
        <time>2022-01-02T07:54:30Z</time>
      </trkpt>
      <trkpt lat="47.12524" lon="-1.57674">
        <ele>17.380065917969</ele>
        <time>2022-01-02T07:54:37Z</time>
      </trkpt>
      <trkpt lat="47.12521" lon="-1.57662">
        <ele>15.356872558594</ele>
        <time>2022-01-02T07:54:45Z</time>
      </trkpt>
      <trkpt lat="47.12518" lon="-1.5765">
        <ele>11.752380371094</ele>
        <time>2022-01-02T07:54:54Z</time>
      </trkpt>
      <trkpt lat="47.12516" lon="-1.57638">
        <ele>9.2352905273438</ele>
        <time>2022-01-02T07:55:05Z</time>
      </trkpt>
      <trkpt lat="47.12514" lon="-1.57625">
        <ele>5.63525390625</ele>
        <time>2022-01-02T07:55:15Z</time>
      </trkpt>
      <trkpt lat="47.1251" lon="-1.57614">
        <ele>4.8306884765625</ele>
        <time>2022-01-02T07:55:23Z</time>
      </trkpt>
      <trkpt lat="47.12508" lon="-1.57602">
        <ele>7.3510131835938</ele>
        <time>2022-01-02T07:55:30Z</time>
      </trkpt>
      <trkpt lat="47.12505" lon="-1.57591">
        <ele>7.3863525390625</ele>
        <time>2022-01-02T07:55:39Z</time>
      </trkpt>
      <trkpt lat="47.12502" lon="-1.57579">
        <ele>7.3953857421875</ele>
        <time>2022-01-02T07:55:47Z</time>
      </trkpt>
      <trkpt lat="47.12499" lon="-1.57567">
        <ele>7.8348999023438</ele>
        <time>2022-01-02T07:55:57Z</time>
      </trkpt>
      <trkpt lat="47.12498" lon="-1.57555">
        <ele>5.1632080078125</ele>
        <time>2022-01-02T07:56:07Z</time>
      </trkpt>
      <trkpt lat="47.12494" lon="-1.57545">
        <ele>4.2865600585938</ele>
        <time>2022-01-02T07:56:14Z</time>
      </trkpt>
      <trkpt lat="47.12491" lon="-1.57534">
        <ele>3.724365234375</ele>
        <time>2022-01-02T07:56:20Z</time>
      </trkpt>
      <trkpt lat="47.12488" lon="-1.57522">
        <ele>3.9716186523438</ele>
        <time>2022-01-02T07:56:26Z</time>
      </trkpt>
      <trkpt lat="47.12486" lon="-1.57511">
        <ele>3.5550537109375</ele>
        <time>2022-01-02T07:56:35Z</time>
      </trkpt>
      <trkpt lat="47.12483" lon="-1.57499">
        <ele>3.2296752929688</ele>
        <time>2022-01-02T07:56:44Z</time>
      </trkpt>
      <trkpt lat="47.12481" lon="-1.57486">
        <ele>5.1104125976562</ele>
        <time>2022-01-02T07:56:51Z</time>
      </trkpt>
      <trkpt lat="47.12478" lon="-1.57475">
        <ele>4.9063110351562</ele>
        <time>2022-01-02T07:56:57Z</time>
      </trkpt>
      <trkpt lat="47.12475" lon="-1.57463">
        <ele>6.211669921875</ele>
        <time>2022-01-02T07:57:05Z</time>
      </trkpt>
      <trkpt lat="47.12471" lon="-1.57453">
        <ele>4.2857055664062</ele>
        <time>2022-01-02T07:57:12Z</time>
      </trkpt>
      <trkpt lat="47.12467" lon="-1.57442">
        <ele>2.5012817382812</ele>
        <time>2022-01-02T07:57:20Z</time>
      </trkpt>
      <trkpt lat="47.1246" lon="-1.57433">
        <ele>2.4591674804688</ele>
        <time>2022-01-02T07:57:29Z</time>
      </trkpt>
      <trkpt lat="47.12453" lon="-1.57425">
        <ele>1.9283447265625</ele>
        <time>2022-01-02T07:57:39Z</time>
      </trkpt>
      <trkpt lat="47.12447" lon="-1.57416">
        <ele>3.5393676757812</ele>
        <time>2022-01-02T07:57:48Z</time>
      </trkpt>
      <trkpt lat="47.12442" lon="-1.57406">
        <ele>1.6119995117188</ele>
        <time>2022-01-02T07:57:57Z</time>
      </trkpt>
      <trkpt lat="47.12436" lon="-1.57396">
        <ele>0.3280029296875</ele>
        <time>2022-01-02T07:58:05Z</time>
      </trkpt>
      <trkpt lat="47.12431" lon="-1.57386">
        <ele>0.51580810546875</ele>
        <time>2022-01-02T07:58:14Z</time>
      </trkpt>
      <trkpt lat="47.12425" lon="-1.57376">
        <ele>2.7093505859375</ele>
        <time>2022-01-02T07:58:22Z</time>
      </trkpt>
      <trkpt lat="47.12421" lon="-1.57365">
        <ele>1.6416625976562</ele>
        <time>2022-01-02T07:58:28Z</time>
      </trkpt>
      <trkpt lat="47.12416" lon="-1.57356">
        <ele>2.2960205078125</ele>
        <time>2022-01-02T07:58:35Z</time>
      </trkpt>
      <trkpt lat="47.12412" lon="-1.57345">
        <ele>1.350341796875</ele>
        <time>2022-01-02T07:58:41Z</time>
      </trkpt>
      <trkpt lat="47.12407" lon="-1.57335">
        <ele>1.1405029296875</ele>
        <time>2022-01-02T07:58:51Z</time>
      </trkpt>
      <trkpt lat="47.12403" lon="-1.57323">
        <ele>1.6336669921875</ele>
        <time>2022-01-02T07:59:04Z</time>
      </trkpt>
      <trkpt lat="47.12398" lon="-1.57313">
        <ele>5.2416381835938</ele>
        <time>2022-01-02T07:59:14Z</time>
      </trkpt>
      <trkpt lat="47.12394" lon="-1.57302">
        <ele>8.4557495117188</ele>
        <time>2022-01-02T07:59:20Z</time>
      </trkpt>
      <trkpt lat="47.12388" lon="-1.57292">
        <ele>8.1153564453125</ele>
        <time>2022-01-02T07:59:28Z</time>
      </trkpt>
      <trkpt lat="47.12383" lon="-1.57283">
        <ele>7.6104736328125</ele>
        <time>2022-01-02T07:59:36Z</time>
      </trkpt>
      <trkpt lat="47.12378" lon="-1.57273">
        <ele>6.263671875</ele>
        <time>2022-01-02T07:59:43Z</time>
      </trkpt>
      <trkpt lat="47.12373" lon="-1.57263">
        <ele>6.089111328125</ele>
        <time>2022-01-02T07:59:48Z</time>
      </trkpt>
      <trkpt lat="47.12368" lon="-1.57254">
        <ele>6.4970703125</ele>
        <time>2022-01-02T07:59:54Z</time>
      </trkpt>
      <trkpt lat="47.12364" lon="-1.57242">
        <ele>8.0488891601562</ele>
        <time>2022-01-02T08:00:02Z</time>
      </trkpt>
      <trkpt lat="47.12358" lon="-1.57233">
        <ele>8.886962890625</ele>
        <time>2022-01-02T08:00:08Z</time>
      </trkpt>
      <trkpt lat="47.12351" lon="-1.57226">
        <ele>8.7639770507812</ele>
        <time>2022-01-02T08:00:16Z</time>
      </trkpt>
      <trkpt lat="47.12344" lon="-1.57219">
        <ele>7.3399047851562</ele>
        <time>2022-01-02T08:00:24Z</time>
      </trkpt>
      <trkpt lat="47.12337" lon="-1.57212">
        <ele>9.1431884765625</ele>
        <time>2022-01-02T08:00:30Z</time>
      </trkpt>
      <trkpt lat="47.12329" lon="-1.57208">
        <ele>4.2247314453125</ele>
        <time>2022-01-02T08:00:37Z</time>
      </trkpt>
      <trkpt lat="47.12321" lon="-1.57202">
        <ele>3.9784545898438</ele>
        <time>2022-01-02T08:00:45Z</time>
      </trkpt>
      <trkpt lat="47.12313" lon="-1.57198">
        <ele>4.613037109375</ele>
        <time>2022-01-02T08:00:54Z</time>
      </trkpt>
      <trkpt lat="47.12306" lon="-1.57191">
        <ele>6.7174072265625</ele>
        <time>2022-01-02T08:01:02Z</time>
      </trkpt>
      <trkpt lat="47.12298" lon="-1.57187">
        <ele>9.1170654296875</ele>
        <time>2022-01-02T08:01:10Z</time>
      </trkpt>
      <trkpt lat="47.1229" lon="-1.57184">
        <ele>10.356384277344</ele>
        <time>2022-01-02T08:01:18Z</time>
      </trkpt>
      <trkpt lat="47.12282" lon="-1.57177">
        <ele>9.4959716796875</ele>
        <time>2022-01-02T08:01:27Z</time>
      </trkpt>
      <trkpt lat="47.12275" lon="-1.57171">
        <ele>9.0773315429688</ele>
        <time>2022-01-02T08:01:36Z</time>
      </trkpt>
      <trkpt lat="47.12267" lon="-1.57167">
        <ele>6.0443725585938</ele>
        <time>2022-01-02T08:01:45Z</time>
      </trkpt>
      <trkpt lat="47.12259" lon="-1.57163">
        <ele>7.3463134765625</ele>
        <time>2022-01-02T08:01:52Z</time>
      </trkpt>
      <trkpt lat="47.12251" lon="-1.57158">
        <ele>11.464416503906</ele>
        <time>2022-01-02T08:02:00Z</time>
      </trkpt>
      <trkpt lat="47.12243" lon="-1.57154">
        <ele>11.494689941406</ele>
        <time>2022-01-02T08:02:07Z</time>
      </trkpt>
      <trkpt lat="47.12235" lon="-1.5715">
        <ele>13.117980957031</ele>
        <time>2022-01-02T08:02:15Z</time>
      </trkpt>
      <trkpt lat="47.12226" lon="-1.57149">
        <ele>13.0498046875</ele>
        <time>2022-01-02T08:02:22Z</time>
      </trkpt>
      <trkpt lat="47.12218" lon="-1.57148">
        <ele>14.290649414062</ele>
        <time>2022-01-02T08:02:30Z</time>
      </trkpt>
      <trkpt lat="47.1221" lon="-1.57146">
        <ele>14.712280273438</ele>
        <time>2022-01-02T08:02:40Z</time>
      </trkpt>
      <trkpt lat="47.12201" lon="-1.57146">
        <ele>13.513610839844</ele>
        <time>2022-01-02T08:02:50Z</time>
      </trkpt>
      <trkpt lat="47.12193" lon="-1.57151">
        <ele>9.2349853515625</ele>
        <time>2022-01-02T08:03:00Z</time>
      </trkpt>
      <trkpt lat="47.12187" lon="-1.5716">
        <ele>6.1793212890625</ele>
        <time>2022-01-02T08:03:09Z</time>
      </trkpt>
      <trkpt lat="47.12182" lon="-1.5717">
        <ele>2.9085083007812</ele>
        <time>2022-01-02T08:03:18Z</time>
      </trkpt>
      <trkpt lat="47.12178" lon="-1.57181">
        <ele>2.044921875</ele>
        <time>2022-01-02T08:03:25Z</time>
      </trkpt>
      <trkpt lat="47.12172" lon="-1.57191">
        <ele>1.9637451171875</ele>
        <time>2022-01-02T08:03:33Z</time>
      </trkpt>
      <trkpt lat="47.12167" lon="-1.57202">
        <ele>1.2142944335938</ele>
        <time>2022-01-02T08:03:41Z</time>
      </trkpt>
      <trkpt lat="47.12162" lon="-1.57212">
        <ele>2.5191650390625</ele>
        <time>2022-01-02T08:03:48Z</time>
      </trkpt>
      <trkpt lat="47.12154" lon="-1.57214">
        <ele>1.181884765625</ele>
        <time>2022-01-02T08:03:57Z</time>
      </trkpt>
      <trkpt lat="47.12146" lon="-1.57212">
        <ele>-0.3377685546875</ele>
        <time>2022-01-02T08:04:05Z</time>
      </trkpt>
      <trkpt lat="47.12137" lon="-1.57214">
        <ele>-0.79962158203125</ele>
        <time>2022-01-02T08:04:13Z</time>
      </trkpt>
      <trkpt lat="47.12128" lon="-1.57212">
        <ele>1.8533935546875</ele>
        <time>2022-01-02T08:04:21Z</time>
      </trkpt>
      <trkpt lat="47.12124" lon="-1.57201">
        <ele>3.5096435546875</ele>
        <time>2022-01-02T08:04:30Z</time>
      </trkpt>
      <trkpt lat="47.1212" lon="-1.5719">
        <ele>5.6328125</ele>
        <time>2022-01-02T08:04:37Z</time>
      </trkpt>
      <trkpt lat="47.12118" lon="-1.57178">
        <ele>8.8517456054688</ele>
        <time>2022-01-02T08:04:44Z</time>
      </trkpt>
      <trkpt lat="47.12114" lon="-1.57166">
        <ele>10.385986328125</ele>
        <time>2022-01-02T08:04:51Z</time>
      </trkpt>
      <trkpt lat="47.12113" lon="-1.57154">
        <ele>10.248657226562</ele>
        <time>2022-01-02T08:05:02Z</time>
      </trkpt>
      <trkpt lat="47.12112" lon="-1.57141">
        <ele>11.320007324219</ele>
        <time>2022-01-02T08:05:10Z</time>
      </trkpt>
      <trkpt lat="47.1211" lon="-1.57131">
        <ele>10.501892089844</ele>
        <time>2022-01-02T08:05:19Z</time>
      </trkpt>
      <trkpt lat="47.12107" lon="-1.57119">
        <ele>9.8167114257812</ele>
        <time>2022-01-02T08:05:25Z</time>
      </trkpt>
      <trkpt lat="47.12105" lon="-1.57108">
        <ele>8.5433959960938</ele>
        <time>2022-01-02T08:05:31Z</time>
      </trkpt>
      <trkpt lat="47.12102" lon="-1.57097">
        <ele>9.4872436523438</ele>
        <time>2022-01-02T08:05:36Z</time>
      </trkpt>
      <trkpt lat="47.12099" lon="-1.57086">
        <ele>10.098266601562</ele>
        <time>2022-01-02T08:05:42Z</time>
      </trkpt>
      <trkpt lat="47.12097" lon="-1.57074">
        <ele>10.308959960938</ele>
        <time>2022-01-02T08:05:49Z</time>
      </trkpt>
      <trkpt lat="47.12095" lon="-1.57063">
        <ele>10.702575683594</ele>
        <time>2022-01-02T08:05:55Z</time>
      </trkpt>
      <trkpt lat="47.12092" lon="-1.57052">
        <ele>11.277465820312</ele>
        <time>2022-01-02T08:06:02Z</time>
      </trkpt>
      <trkpt lat="47.1209" lon="-1.5704">
        <ele>11.110412597656</ele>
        <time>2022-01-02T08:06:09Z</time>
      </trkpt>
      <trkpt lat="47.12088" lon="-1.57029">
        <ele>11.38037109375</ele>
        <time>2022-01-02T08:06:16Z</time>
      </trkpt>
      <trkpt lat="47.12085" lon="-1.57017">
        <ele>12.316650390625</ele>
        <time>2022-01-02T08:06:23Z</time>
      </trkpt>
      <trkpt lat="47.12082" lon="-1.57005">
        <ele>12.898803710938</ele>
        <time>2022-01-02T08:06:31Z</time>
      </trkpt>
      <trkpt lat="47.1208" lon="-1.56992">
        <ele>13.553894042969</ele>
        <time>2022-01-02T08:06:39Z</time>
      </trkpt>
      <trkpt lat="47.12076" lon="-1.56981">
        <ele>12.604431152344</ele>
        <time>2022-01-02T08:06:46Z</time>
      </trkpt>
      <trkpt lat="47.12075" lon="-1.56968">
        <ele>11.112670898438</ele>
        <time>2022-01-02T08:06:55Z</time>
      </trkpt>
      <trkpt lat="47.12077" lon="-1.56956">
        <ele>9.206787109375</ele>
        <time>2022-01-02T08:07:04Z</time>
      </trkpt>
      <trkpt lat="47.12083" lon="-1.56948">
        <ele>6.8970947265625</ele>
        <time>2022-01-02T08:07:13Z</time>
      </trkpt>
      <trkpt lat="47.12089" lon="-1.56939">
        <ele>3.789306640625</ele>
        <time>2022-01-02T08:07:23Z</time>
      </trkpt>
      <trkpt lat="47.12095" lon="-1.56931">
        <ele>0.9530029296875</ele>
        <time>2022-01-02T08:07:32Z</time>
      </trkpt>
      <trkpt lat="47.12102" lon="-1.56922">
        <ele>0.40850830078125</ele>
        <time>2022-01-02T08:07:42Z</time>
      </trkpt>
      <trkpt lat="47.12109" lon="-1.56917">
        <ele>-0.6278076171875</ele>
        <time>2022-01-02T08:07:50Z</time>
      </trkpt>
      <trkpt lat="47.12116" lon="-1.56912">
        <ele>0.0955810546875</ele>
        <time>2022-01-02T08:07:56Z</time>
      </trkpt>
      <trkpt lat="47.12123" lon="-1.56907">
        <ele>1.7224731445312</ele>
        <time>2022-01-02T08:08:02Z</time>
      </trkpt>
      <trkpt lat="47.12131" lon="-1.56902">
        <ele>3.27978515625</ele>
        <time>2022-01-02T08:08:07Z</time>
      </trkpt>
      <trkpt lat="47.12138" lon="-1.56896">
        <ele>4.0972900390625</ele>
        <time>2022-01-02T08:08:14Z</time>
      </trkpt>
      <trkpt lat="47.12145" lon="-1.56889">
        <ele>5.5653076171875</ele>
        <time>2022-01-02T08:08:21Z</time>
      </trkpt>
      <trkpt lat="47.12153" lon="-1.56883">
        <ele>6.30712890625</ele>
        <time>2022-01-02T08:08:28Z</time>
      </trkpt>
      <trkpt lat="47.1216" lon="-1.56876">
        <ele>6.0752563476562</ele>
        <time>2022-01-02T08:08:35Z</time>
      </trkpt>
      <trkpt lat="47.12167" lon="-1.56869">
        <ele>6.9362182617188</ele>
        <time>2022-01-02T08:08:43Z</time>
      </trkpt>
      <trkpt lat="47.12174" lon="-1.56863">
        <ele>7.6704711914062</ele>
        <time>2022-01-02T08:08:50Z</time>
      </trkpt>
      <trkpt lat="47.12181" lon="-1.56856">
        <ele>7.4813842773438</ele>
        <time>2022-01-02T08:08:57Z</time>
      </trkpt>
      <trkpt lat="47.12188" lon="-1.5685">
        <ele>7.6400146484375</ele>
        <time>2022-01-02T08:09:05Z</time>
      </trkpt>
      <trkpt lat="47.12195" lon="-1.56843">
        <ele>7.459228515625</ele>
        <time>2022-01-02T08:09:13Z</time>
      </trkpt>
      <trkpt lat="47.12202" lon="-1.56836">
        <ele>9.4019775390625</ele>
        <time>2022-01-02T08:09:20Z</time>
      </trkpt>
      <trkpt lat="47.1221" lon="-1.56829">
        <ele>9.1182861328125</ele>
        <time>2022-01-02T08:09:28Z</time>
      </trkpt>
      <trkpt lat="47.12217" lon="-1.56822">
        <ele>11.337829589844</ele>
        <time>2022-01-02T08:09:35Z</time>
      </trkpt>
      <trkpt lat="47.12225" lon="-1.56816">
        <ele>11.110168457031</ele>
        <time>2022-01-02T08:09:42Z</time>
      </trkpt>
      <trkpt lat="47.12231" lon="-1.56807">
        <ele>11.640319824219</ele>
        <time>2022-01-02T08:09:50Z</time>
      </trkpt>
      <trkpt lat="47.12237" lon="-1.568">
        <ele>11.343872070312</ele>
        <time>2022-01-02T08:09:58Z</time>
      </trkpt>
      <trkpt lat="47.12244" lon="-1.56791">
        <ele>12.035888671875</ele>
        <time>2022-01-02T08:10:05Z</time>
      </trkpt>
      <trkpt lat="47.12247" lon="-1.56779">
        <ele>13.917297363281</ele>
        <time>2022-01-02T08:10:13Z</time>
      </trkpt>
      <trkpt lat="47.12245" lon="-1.56767">
        <ele>13.838684082031</ele>
        <time>2022-01-02T08:10:21Z</time>
      </trkpt>
      <trkpt lat="47.12243" lon="-1.56755">
        <ele>13.524169921875</ele>
        <time>2022-01-02T08:10:29Z</time>
      </trkpt>
      <trkpt lat="47.12241" lon="-1.56743">
        <ele>12.531799316406</ele>
        <time>2022-01-02T08:10:37Z</time>
      </trkpt>
      <trkpt lat="47.1224" lon="-1.56731">
        <ele>11.505065917969</ele>
        <time>2022-01-02T08:10:45Z</time>
      </trkpt>
      <trkpt lat="47.12239" lon="-1.56719">
        <ele>10.598815917969</ele>
        <time>2022-01-02T08:10:53Z</time>
      </trkpt>
      <trkpt lat="47.12239" lon="-1.56706">
        <ele>9.5057373046875</ele>
        <time>2022-01-02T08:11:01Z</time>
      </trkpt>
      <trkpt lat="47.1224" lon="-1.56694">
        <ele>12.14208984375</ele>
        <time>2022-01-02T08:11:17Z</time>
      </trkpt>
      <trkpt lat="47.1224" lon="-1.56681">
        <ele>11.9541015625</ele>
        <time>2022-01-02T08:11:25Z</time>
      </trkpt>
      <trkpt lat="47.12239" lon="-1.56669">
        <ele>12.3994140625</ele>
        <time>2022-01-02T08:11:33Z</time>
      </trkpt>
      <trkpt lat="47.1224" lon="-1.56657">
        <ele>12.0224609375</ele>
        <time>2022-01-02T08:11:41Z</time>
      </trkpt>
      <trkpt lat="47.1224" lon="-1.56645">
        <ele>14.520751953125</ele>
        <time>2022-01-02T08:11:47Z</time>
      </trkpt>
      <trkpt lat="47.12241" lon="-1.56632">
        <ele>14.174499511719</ele>
        <time>2022-01-02T08:11:54Z</time>
      </trkpt>
      <trkpt lat="47.12243" lon="-1.56619">
        <ele>13.636108398438</ele>
        <time>2022-01-02T08:12:02Z</time>
      </trkpt>
      <trkpt lat="47.12244" lon="-1.56607">
        <ele>13.644226074219</ele>
        <time>2022-01-02T08:12:10Z</time>
      </trkpt>
      <trkpt lat="47.12246" lon="-1.56595">
        <ele>12.249877929688</ele>
        <time>2022-01-02T08:12:20Z</time>
      </trkpt>
      <trkpt lat="47.12248" lon="-1.56583">
        <ele>12.450744628906</ele>
        <time>2022-01-02T08:12:27Z</time>
      </trkpt>
      <trkpt lat="47.12249" lon="-1.5657">
        <ele>11.787353515625</ele>
        <time>2022-01-02T08:12:35Z</time>
      </trkpt>
      <trkpt lat="47.12251" lon="-1.56558">
        <ele>11.629699707031</ele>
        <time>2022-01-02T08:12:42Z</time>
      </trkpt>
      <trkpt lat="47.12251" lon="-1.56546">
        <ele>11.91162109375</ele>
        <time>2022-01-02T08:12:50Z</time>
      </trkpt>
      <trkpt lat="47.12252" lon="-1.56533">
        <ele>12.494384765625</ele>
        <time>2022-01-02T08:12:57Z</time>
      </trkpt>
      <trkpt lat="47.12253" lon="-1.5652">
        <ele>12.66259765625</ele>
        <time>2022-01-02T08:13:05Z</time>
      </trkpt>
      <trkpt lat="47.12252" lon="-1.56509">
        <ele>12.909973144531</ele>
        <time>2022-01-02T08:13:12Z</time>
      </trkpt>
      <trkpt lat="47.1225" lon="-1.56496">
        <ele>12.507690429688</ele>
        <time>2022-01-02T08:13:20Z</time>
      </trkpt>
      <trkpt lat="47.12243" lon="-1.56489">
        <ele>12.828430175781</ele>
        <time>2022-01-02T08:13:28Z</time>
      </trkpt>
      <trkpt lat="47.12239" lon="-1.56479">
        <ele>12.301635742188</ele>
        <time>2022-01-02T08:13:36Z</time>
      </trkpt>
      <trkpt lat="47.12234" lon="-1.56469">
        <ele>13.393005371094</ele>
        <time>2022-01-02T08:13:44Z</time>
      </trkpt>
      <trkpt lat="47.12229" lon="-1.56459">
        <ele>13.196960449219</ele>
        <time>2022-01-02T08:13:52Z</time>
      </trkpt>
      <trkpt lat="47.12224" lon="-1.56447">
        <ele>13.848571777344</ele>
        <time>2022-01-02T08:14:00Z</time>
      </trkpt>
      <trkpt lat="47.12219" lon="-1.56436">
        <ele>13.790954589844</ele>
        <time>2022-01-02T08:14:08Z</time>
      </trkpt>
      <trkpt lat="47.12215" lon="-1.56425">
        <ele>13.410400390625</ele>
        <time>2022-01-02T08:14:16Z</time>
      </trkpt>
      <trkpt lat="47.1221" lon="-1.56415">
        <ele>13.477111816406</ele>
        <time>2022-01-02T08:14:24Z</time>
      </trkpt>
      <trkpt lat="47.12206" lon="-1.56404">
        <ele>13.657287597656</ele>
        <time>2022-01-02T08:14:32Z</time>
      </trkpt>
      <trkpt lat="47.12202" lon="-1.56393">
        <ele>13.268371582031</ele>
        <time>2022-01-02T08:14:40Z</time>
      </trkpt>
      <trkpt lat="47.12198" lon="-1.56382">
        <ele>13.490234375</ele>
        <time>2022-01-02T08:14:48Z</time>
      </trkpt>
      <trkpt lat="47.12194" lon="-1.56371">
        <ele>13.723266601562</ele>
        <time>2022-01-02T08:14:56Z</time>
      </trkpt>
      <trkpt lat="47.1219" lon="-1.5636">
        <ele>13.849487304688</ele>
        <time>2022-01-02T08:15:04Z</time>
      </trkpt>
      <trkpt lat="47.12184" lon="-1.56349">
        <ele>13.368957519531</ele>
        <time>2022-01-02T08:15:12Z</time>
      </trkpt>
      <trkpt lat="47.1218" lon="-1.5634">
        <ele>13.408264160156</ele>
        <time>2022-01-02T08:15:19Z</time>
      </trkpt>
      <trkpt lat="47.12174" lon="-1.56329">
        <ele>13.40234375</ele>
        <time>2022-01-02T08:15:27Z</time>
      </trkpt>
      <trkpt lat="47.12168" lon="-1.5632">
        <ele>12.761657714844</ele>
        <time>2022-01-02T08:15:35Z</time>
      </trkpt>
      <trkpt lat="47.12162" lon="-1.56311">
        <ele>12.381958007812</ele>
        <time>2022-01-02T08:15:43Z</time>
      </trkpt>
      <trkpt lat="47.12156" lon="-1.56301">
        <ele>11.654479980469</ele>
        <time>2022-01-02T08:15:51Z</time>
      </trkpt>
      <trkpt lat="47.12151" lon="-1.56292">
        <ele>12.186645507812</ele>
        <time>2022-01-02T08:15:58Z</time>
      </trkpt>
      <trkpt lat="47.12144" lon="-1.56285">
        <ele>12.665649414062</ele>
        <time>2022-01-02T08:16:06Z</time>
      </trkpt>
      <trkpt lat="47.12137" lon="-1.56277">
        <ele>12.610900878906</ele>
        <time>2022-01-02T08:16:14Z</time>
      </trkpt>
      <trkpt lat="47.1213" lon="-1.56269">
        <ele>12.666137695312</ele>
        <time>2022-01-02T08:16:21Z</time>
      </trkpt>
      <trkpt lat="47.12125" lon="-1.56261">
        <ele>12.364562988281</ele>
        <time>2022-01-02T08:16:28Z</time>
      </trkpt>
      <trkpt lat="47.12119" lon="-1.56253">
        <ele>11.942443847656</ele>
        <time>2022-01-02T08:16:35Z</time>
      </trkpt>
      <trkpt lat="47.12113" lon="-1.56245">
        <ele>12.805358886719</ele>
        <time>2022-01-02T08:16:42Z</time>
      </trkpt>
      <trkpt lat="47.12106" lon="-1.56237">
        <ele>13.587341308594</ele>
        <time>2022-01-02T08:16:50Z</time>
      </trkpt>
      <trkpt lat="47.12099" lon="-1.5623">
        <ele>13.701354980469</ele>
        <time>2022-01-02T08:16:57Z</time>
      </trkpt>
      <trkpt lat="47.12093" lon="-1.56222">
        <ele>14.743713378906</ele>
        <time>2022-01-02T08:17:05Z</time>
      </trkpt>
      <trkpt lat="47.12086" lon="-1.56215">
        <ele>15.850463867188</ele>
        <time>2022-01-02T08:17:12Z</time>
      </trkpt>
      <trkpt lat="47.1208" lon="-1.56207">
        <ele>16.121276855469</ele>
        <time>2022-01-02T08:17:19Z</time>
      </trkpt>
      <trkpt lat="47.12073" lon="-1.56201">
        <ele>16.872863769531</ele>
        <time>2022-01-02T08:17:28Z</time>
      </trkpt>
      <trkpt lat="47.12066" lon="-1.56193">
        <ele>15.978881835938</ele>
        <time>2022-01-02T08:17:35Z</time>
      </trkpt>
      <trkpt lat="47.1206" lon="-1.56187">
        <ele>15.203674316406</ele>
        <time>2022-01-02T08:17:42Z</time>
      </trkpt>
      <trkpt lat="47.12054" lon="-1.56178">
        <ele>16.877380371094</ele>
        <time>2022-01-02T08:17:49Z</time>
      </trkpt>
      <trkpt lat="47.12047" lon="-1.5617">
        <ele>15.910217285156</ele>
        <time>2022-01-02T08:17:57Z</time>
      </trkpt>
      <trkpt lat="47.12041" lon="-1.56161">
        <ele>15.807800292969</ele>
        <time>2022-01-02T08:18:05Z</time>
      </trkpt>
      <trkpt lat="47.12036" lon="-1.56151">
        <ele>15.124572753906</ele>
        <time>2022-01-02T08:18:13Z</time>
      </trkpt>
      <trkpt lat="47.12031" lon="-1.56141">
        <ele>14.296691894531</ele>
        <time>2022-01-02T08:18:21Z</time>
      </trkpt>
      <trkpt lat="47.12026" lon="-1.5613">
        <ele>13.276489257812</ele>
        <time>2022-01-02T08:18:29Z</time>
      </trkpt>
      <trkpt lat="47.12021" lon="-1.56121">
        <ele>13.597717285156</ele>
        <time>2022-01-02T08:18:37Z</time>
      </trkpt>
      <trkpt lat="47.12015" lon="-1.5611">
        <ele>13.896667480469</ele>
        <time>2022-01-02T08:18:45Z</time>
      </trkpt>
      <trkpt lat="47.12011" lon="-1.56099">
        <ele>13.679382324219</ele>
        <time>2022-01-02T08:18:53Z</time>
      </trkpt>
      <trkpt lat="47.1201" lon="-1.56087">
        <ele>13.6474609375</ele>
        <time>2022-01-02T08:19:01Z</time>
      </trkpt>
      <trkpt lat="47.12014" lon="-1.56076">
        <ele>13.706909179688</ele>
        <time>2022-01-02T08:19:09Z</time>
      </trkpt>
      <trkpt lat="47.12019" lon="-1.56067">
        <ele>14.08642578125</ele>
        <time>2022-01-02T08:19:16Z</time>
      </trkpt>
      <trkpt lat="47.12024" lon="-1.56058">
        <ele>14.44580078125</ele>
        <time>2022-01-02T08:19:23Z</time>
      </trkpt>
      <trkpt lat="47.1203" lon="-1.56048">
        <ele>14.258605957031</ele>
        <time>2022-01-02T08:19:31Z</time>
      </trkpt>
      <trkpt lat="47.12035" lon="-1.56038">
        <ele>14.687072753906</ele>
        <time>2022-01-02T08:19:39Z</time>
      </trkpt>
      <trkpt lat="47.1204" lon="-1.56028">
        <ele>14.54638671875</ele>
        <time>2022-01-02T08:19:47Z</time>
      </trkpt>
      <trkpt lat="47.12045" lon="-1.56018">
        <ele>14.346496582031</ele>
        <time>2022-01-02T08:19:55Z</time>
      </trkpt>
      <trkpt lat="47.1205" lon="-1.56008">
        <ele>14.851379394531</ele>
        <time>2022-01-02T08:20:02Z</time>
      </trkpt>
      <trkpt lat="47.12054" lon="-1.55997">
        <ele>14.333374023438</ele>
        <time>2022-01-02T08:20:10Z</time>
      </trkpt>
      <trkpt lat="47.12058" lon="-1.55987">
        <ele>14.585632324219</ele>
        <time>2022-01-02T08:20:18Z</time>
      </trkpt>
      <trkpt lat="47.12063" lon="-1.55975">
        <ele>14.617431640625</ele>
        <time>2022-01-02T08:20:26Z</time>
      </trkpt>
      <trkpt lat="47.12066" lon="-1.55965">
        <ele>14.877746582031</ele>
        <time>2022-01-02T08:20:33Z</time>
      </trkpt>
      <trkpt lat="47.1207" lon="-1.55955">
        <ele>14.833435058594</ele>
        <time>2022-01-02T08:20:40Z</time>
      </trkpt>
      <trkpt lat="47.12073" lon="-1.55943">
        <ele>14.804504394531</ele>
        <time>2022-01-02T08:20:48Z</time>
      </trkpt>
      <trkpt lat="47.12077" lon="-1.55932">
        <ele>15.500305175781</ele>
        <time>2022-01-02T08:20:56Z</time>
      </trkpt>
      <trkpt lat="47.12081" lon="-1.55921">
        <ele>16.225219726562</ele>
        <time>2022-01-02T08:21:04Z</time>
      </trkpt>
      <trkpt lat="47.12084" lon="-1.55909">
        <ele>16.84521484375</ele>
        <time>2022-01-02T08:21:12Z</time>
      </trkpt>
      <trkpt lat="47.12087" lon="-1.55898">
        <ele>17.785217285156</ele>
        <time>2022-01-02T08:21:19Z</time>
      </trkpt>
      <trkpt lat="47.1209" lon="-1.55886">
        <ele>17.920288085938</ele>
        <time>2022-01-02T08:21:27Z</time>
      </trkpt>
      <trkpt lat="47.12092" lon="-1.55875">
        <ele>17.800170898438</ele>
        <time>2022-01-02T08:21:35Z</time>
      </trkpt>
      <trkpt lat="47.12095" lon="-1.55862">
        <ele>17.101135253906</ele>
        <time>2022-01-02T08:21:44Z</time>
      </trkpt>
      <trkpt lat="47.12098" lon="-1.5585">
        <ele>16.547668457031</ele>
        <time>2022-01-02T08:21:52Z</time>
      </trkpt>
      <trkpt lat="47.12101" lon="-1.55839">
        <ele>16.851806640625</ele>
        <time>2022-01-02T08:22:00Z</time>
      </trkpt>
      <trkpt lat="47.12102" lon="-1.55826">
        <ele>17.646484375</ele>
        <time>2022-01-02T08:22:08Z</time>
      </trkpt>
      <trkpt lat="47.12097" lon="-1.55816">
        <ele>18.013977050781</ele>
        <time>2022-01-02T08:22:16Z</time>
      </trkpt>
      <trkpt lat="47.12095" lon="-1.55804">
        <ele>18.228088378906</ele>
        <time>2022-01-02T08:22:25Z</time>
      </trkpt>
      <trkpt lat="47.12097" lon="-1.55792">
        <ele>18.821350097656</ele>
        <time>2022-01-02T08:22:33Z</time>
      </trkpt>
      <trkpt lat="47.121" lon="-1.55782">
        <ele>18.534912109375</ele>
        <time>2022-01-02T08:22:40Z</time>
      </trkpt>
      <trkpt lat="47.12102" lon="-1.5577">
        <ele>18.519897460938</ele>
        <time>2022-01-02T08:22:48Z</time>
      </trkpt>
      <trkpt lat="47.12103" lon="-1.55758">
        <ele>17.9775390625</ele>
        <time>2022-01-02T08:22:55Z</time>
      </trkpt>
      <trkpt lat="47.12106" lon="-1.55746">
        <ele>18.640441894531</ele>
        <time>2022-01-02T08:23:03Z</time>
      </trkpt>
      <trkpt lat="47.12108" lon="-1.55734">
        <ele>18.790283203125</ele>
        <time>2022-01-02T08:23:11Z</time>
      </trkpt>
      <trkpt lat="47.12115" lon="-1.55726">
        <ele>19.665954589844</ele>
        <time>2022-01-02T08:23:18Z</time>
      </trkpt>
      <trkpt lat="47.12118" lon="-1.55715">
        <ele>18.484375</ele>
        <time>2022-01-02T08:23:26Z</time>
      </trkpt>
      <trkpt lat="47.12119" lon="-1.55703">
        <ele>19.373962402344</ele>
        <time>2022-01-02T08:23:34Z</time>
      </trkpt>
      <trkpt lat="47.12121" lon="-1.5569">
        <ele>18.691772460938</ele>
        <time>2022-01-02T08:23:42Z</time>
      </trkpt>
      <trkpt lat="47.12124" lon="-1.55678">
        <ele>17.676452636719</ele>
        <time>2022-01-02T08:23:51Z</time>
      </trkpt>
      <trkpt lat="47.12125" lon="-1.55667">
        <ele>16.6591796875</ele>
        <time>2022-01-02T08:23:59Z</time>
      </trkpt>
      <trkpt lat="47.12127" lon="-1.55654">
        <ele>17.420288085938</ele>
        <time>2022-01-02T08:24:07Z</time>
      </trkpt>
      <trkpt lat="47.12127" lon="-1.55642">
        <ele>18.612426757812</ele>
        <time>2022-01-02T08:24:14Z</time>
      </trkpt>
      <trkpt lat="47.12129" lon="-1.55631">
        <ele>20.298278808594</ele>
        <time>2022-01-02T08:24:20Z</time>
      </trkpt>
      <trkpt lat="47.12133" lon="-1.55619">
        <ele>21.675109863281</ele>
        <time>2022-01-02T08:24:27Z</time>
      </trkpt>
      <trkpt lat="47.12135" lon="-1.55608">
        <ele>19.348388671875</ele>
        <time>2022-01-02T08:24:35Z</time>
      </trkpt>
      <trkpt lat="47.12136" lon="-1.55597">
        <ele>19.6875</ele>
        <time>2022-01-02T08:24:42Z</time>
      </trkpt>
      <trkpt lat="47.12139" lon="-1.55585">
        <ele>19.768737792969</ele>
        <time>2022-01-02T08:24:49Z</time>
      </trkpt>
      <trkpt lat="47.1214" lon="-1.55572">
        <ele>19.725219726562</ele>
        <time>2022-01-02T08:24:57Z</time>
      </trkpt>
      <trkpt lat="47.1214" lon="-1.5556">
        <ele>20.778686523438</ele>
        <time>2022-01-02T08:25:05Z</time>
      </trkpt>
      <trkpt lat="47.12141" lon="-1.55547">
        <ele>21.840393066406</ele>
        <time>2022-01-02T08:25:13Z</time>
      </trkpt>
      <trkpt lat="47.12145" lon="-1.55536">
        <ele>20.579711914062</ele>
        <time>2022-01-02T08:25:20Z</time>
      </trkpt>
      <trkpt lat="47.12146" lon="-1.55523">
        <ele>20.630920410156</ele>
        <time>2022-01-02T08:25:28Z</time>
      </trkpt>
      <trkpt lat="47.12148" lon="-1.55512">
        <ele>20.160034179688</ele>
        <time>2022-01-02T08:25:36Z</time>
      </trkpt>
      <trkpt lat="47.1215" lon="-1.55499">
        <ele>17.35888671875</ele>
        <time>2022-01-02T08:25:45Z</time>
      </trkpt>
      <trkpt lat="47.12148" lon="-1.55488">
        <ele>16.900390625</ele>
        <time>2022-01-02T08:25:53Z</time>
      </trkpt>
      <trkpt lat="47.12146" lon="-1.55476">
        <ele>17.154907226562</ele>
        <time>2022-01-02T08:26:00Z</time>
      </trkpt>
      <trkpt lat="47.12143" lon="-1.55464">
        <ele>15.836547851562</ele>
        <time>2022-01-02T08:26:08Z</time>
      </trkpt>
      <trkpt lat="47.12141" lon="-1.55452">
        <ele>15.198791503906</ele>
        <time>2022-01-02T08:26:16Z</time>
      </trkpt>
      <trkpt lat="47.12138" lon="-1.55441">
        <ele>15.307556152344</ele>
        <time>2022-01-02T08:26:23Z</time>
      </trkpt>
      <trkpt lat="47.12137" lon="-1.55429">
        <ele>15.257019042969</ele>
        <time>2022-01-02T08:26:31Z</time>
      </trkpt>
      <trkpt lat="47.12136" lon="-1.55416">
        <ele>16.709655761719</ele>
        <time>2022-01-02T08:26:40Z</time>
      </trkpt>
      <trkpt lat="47.12133" lon="-1.55404">
        <ele>15.7783203125</ele>
        <time>2022-01-02T08:26:48Z</time>
      </trkpt>
      <trkpt lat="47.1213" lon="-1.55393">
        <ele>15.585754394531</ele>
        <time>2022-01-02T08:26:56Z</time>
      </trkpt>
      <trkpt lat="47.12126" lon="-1.55382">
        <ele>15.222778320312</ele>
        <time>2022-01-02T08:27:05Z</time>
      </trkpt>
      <trkpt lat="47.12123" lon="-1.5537">
        <ele>15.510681152344</ele>
        <time>2022-01-02T08:27:13Z</time>
      </trkpt>
      <trkpt lat="47.1212" lon="-1.55357">
        <ele>15.548828125</ele>
        <time>2022-01-02T08:27:22Z</time>
      </trkpt>
      <trkpt lat="47.12118" lon="-1.55345">
        <ele>16.490783691406</ele>
        <time>2022-01-02T08:27:31Z</time>
      </trkpt>
      <trkpt lat="47.12118" lon="-1.55332">
        <ele>17.174560546875</ele>
        <time>2022-01-02T08:27:39Z</time>
      </trkpt>
      <trkpt lat="47.12116" lon="-1.5532">
        <ele>18.2841796875</ele>
        <time>2022-01-02T08:27:47Z</time>
      </trkpt>
      <trkpt lat="47.12115" lon="-1.55307">
        <ele>19.282653808594</ele>
        <time>2022-01-02T08:27:55Z</time>
      </trkpt>
      <trkpt lat="47.12115" lon="-1.55295">
        <ele>19.002014160156</ele>
        <time>2022-01-02T08:28:04Z</time>
      </trkpt>
      <trkpt lat="47.12115" lon="-1.55282">
        <ele>18.7197265625</ele>
        <time>2022-01-02T08:28:11Z</time>
      </trkpt>
      <trkpt lat="47.12116" lon="-1.55269">
        <ele>18.815551757812</ele>
        <time>2022-01-02T08:28:18Z</time>
      </trkpt>
      <trkpt lat="47.12118" lon="-1.55257">
        <ele>19.014282226562</ele>
        <time>2022-01-02T08:28:26Z</time>
      </trkpt>
      <trkpt lat="47.1212" lon="-1.55245">
        <ele>19.943481445312</ele>
        <time>2022-01-02T08:28:34Z</time>
      </trkpt>
      <trkpt lat="47.1212" lon="-1.55233">
        <ele>17.561706542969</ele>
        <time>2022-01-02T08:28:43Z</time>
      </trkpt>
      <trkpt lat="47.12119" lon="-1.5522">
        <ele>15.824035644531</ele>
        <time>2022-01-02T08:28:52Z</time>
      </trkpt>
      <trkpt lat="47.12119" lon="-1.55208">
        <ele>14.81396484375</ele>
        <time>2022-01-02T08:29:00Z</time>
      </trkpt>
      <trkpt lat="47.12121" lon="-1.55195">
        <ele>14.44921875</ele>
        <time>2022-01-02T08:29:09Z</time>
      </trkpt>
      <trkpt lat="47.1212" lon="-1.55183">
        <ele>13.661926269531</ele>
        <time>2022-01-02T08:29:18Z</time>
      </trkpt>
      <trkpt lat="47.12119" lon="-1.55171">
        <ele>14.35888671875</ele>
        <time>2022-01-02T08:29:27Z</time>
      </trkpt>
      <trkpt lat="47.12121" lon="-1.5516">
        <ele>13.773193359375</ele>
        <time>2022-01-02T08:29:37Z</time>
      </trkpt>
      <trkpt lat="47.12121" lon="-1.55147">
        <ele>14.908630371094</ele>
        <time>2022-01-02T08:29:46Z</time>
      </trkpt>
      <trkpt lat="47.12121" lon="-1.55135">
        <ele>14.768859863281</ele>
        <time>2022-01-02T08:29:54Z</time>
      </trkpt>
      <trkpt lat="47.1212" lon="-1.55124">
        <ele>13.806091308594</ele>
        <time>2022-01-02T08:30:01Z</time>
      </trkpt>
      <trkpt lat="47.1212" lon="-1.55111">
        <ele>14.32666015625</ele>
        <time>2022-01-02T08:30:09Z</time>
      </trkpt>
      <trkpt lat="47.12119" lon="-1.55099">
        <ele>16.101196289062</ele>
        <time>2022-01-02T08:30:31Z</time>
      </trkpt>
      <trkpt lat="47.12116" lon="-1.55088">
        <ele>14.531311035156</ele>
        <time>2022-01-02T08:30:40Z</time>
      </trkpt>
      <trkpt lat="47.12114" lon="-1.55075">
        <ele>14.440368652344</ele>
        <time>2022-01-02T08:30:48Z</time>
      </trkpt>
      <trkpt lat="47.12113" lon="-1.55062">
        <ele>12.501403808594</ele>
        <time>2022-01-02T08:30:57Z</time>
      </trkpt>
      <trkpt lat="47.12111" lon="-1.55051">
        <ele>12.46875</ele>
        <time>2022-01-02T08:31:05Z</time>
      </trkpt>
      <trkpt lat="47.12107" lon="-1.55039">
        <ele>12.731811523438</ele>
        <time>2022-01-02T08:31:13Z</time>
      </trkpt>
      <trkpt lat="47.12102" lon="-1.55028">
        <ele>12.705871582031</ele>
        <time>2022-01-02T08:31:21Z</time>
      </trkpt>
      <trkpt lat="47.12095" lon="-1.55021">
        <ele>12.483581542969</ele>
        <time>2022-01-02T08:31:29Z</time>
      </trkpt>
      <trkpt lat="47.12088" lon="-1.55014">
        <ele>11.192932128906</ele>
        <time>2022-01-02T08:31:37Z</time>
      </trkpt>
      <trkpt lat="47.12082" lon="-1.55007">
        <ele>10.429016113281</ele>
        <time>2022-01-02T08:31:45Z</time>
      </trkpt>
      <trkpt lat="47.12075" lon="-1.55">
        <ele>9.2455444335938</ele>
        <time>2022-01-02T08:31:53Z</time>
      </trkpt>
      <trkpt lat="47.12068" lon="-1.54993">
        <ele>9.2646484375</ele>
        <time>2022-01-02T08:32:01Z</time>
      </trkpt>
      <trkpt lat="47.12062" lon="-1.54985">
        <ele>10.273193359375</ele>
        <time>2022-01-02T08:32:08Z</time>
      </trkpt>
      <trkpt lat="47.12055" lon="-1.54978">
        <ele>10.1904296875</ele>
        <time>2022-01-02T08:32:16Z</time>
      </trkpt>
      <trkpt lat="47.12047" lon="-1.54971">
        <ele>11.162841796875</ele>
        <time>2022-01-02T08:32:24Z</time>
      </trkpt>
      <trkpt lat="47.1204" lon="-1.54963">
        <ele>11.0224609375</ele>
        <time>2022-01-02T08:32:32Z</time>
      </trkpt>
      <trkpt lat="47.12033" lon="-1.54956">
        <ele>10.603637695312</ele>
        <time>2022-01-02T08:32:39Z</time>
      </trkpt>
      <trkpt lat="47.12027" lon="-1.54949">
        <ele>10.245178222656</ele>
        <time>2022-01-02T08:32:46Z</time>
      </trkpt>
      <trkpt lat="47.12022" lon="-1.54937">
        <ele>11.25634765625</ele>
        <time>2022-01-02T08:32:56Z</time>
      </trkpt>
      <trkpt lat="47.12028" lon="-1.54928">
        <ele>13.51611328125</ele>
        <time>2022-01-02T08:33:04Z</time>
      </trkpt>
      <trkpt lat="47.12035" lon="-1.54921">
        <ele>12.192138671875</ele>
        <time>2022-01-02T08:33:12Z</time>
      </trkpt>
      <trkpt lat="47.12043" lon="-1.54918">
        <ele>13.659301757812</ele>
        <time>2022-01-02T08:33:24Z</time>
      </trkpt>
      <trkpt lat="47.12051" lon="-1.54913">
        <ele>13.330139160156</ele>
        <time>2022-01-02T08:33:34Z</time>
      </trkpt>
      <trkpt lat="47.12059" lon="-1.5491">
        <ele>14.0498046875</ele>
        <time>2022-01-02T08:33:43Z</time>
      </trkpt>
      <trkpt lat="47.12067" lon="-1.54907">
        <ele>13.949340820312</ele>
        <time>2022-01-02T08:33:51Z</time>
      </trkpt>
      <trkpt lat="47.12075" lon="-1.54903">
        <ele>13.629333496094</ele>
        <time>2022-01-02T08:33:59Z</time>
      </trkpt>
      <trkpt lat="47.12083" lon="-1.54899">
        <ele>13.2021484375</ele>
        <time>2022-01-02T08:34:08Z</time>
      </trkpt>
      <trkpt lat="47.12091" lon="-1.54894">
        <ele>13.926879882812</ele>
        <time>2022-01-02T08:34:16Z</time>
      </trkpt>
      <trkpt lat="47.12098" lon="-1.54889">
        <ele>13.5869140625</ele>
        <time>2022-01-02T08:34:24Z</time>
      </trkpt>
      <trkpt lat="47.12106" lon="-1.54884">
        <ele>13.399719238281</ele>
        <time>2022-01-02T08:34:32Z</time>
      </trkpt>
      <trkpt lat="47.12113" lon="-1.54877">
        <ele>14.165710449219</ele>
        <time>2022-01-02T08:34:40Z</time>
      </trkpt>
      <trkpt lat="47.1212" lon="-1.54873">
        <ele>15.104736328125</ele>
        <time>2022-01-02T08:34:47Z</time>
      </trkpt>
      <trkpt lat="47.12128" lon="-1.54866">
        <ele>15.129089355469</ele>
        <time>2022-01-02T08:34:55Z</time>
      </trkpt>
      <trkpt lat="47.12135" lon="-1.5486">
        <ele>15.872314453125</ele>
        <time>2022-01-02T08:35:02Z</time>
      </trkpt>
      <trkpt lat="47.12142" lon="-1.54854">
        <ele>15.900573730469</ele>
        <time>2022-01-02T08:35:09Z</time>
      </trkpt>
      <trkpt lat="47.12149" lon="-1.54849">
        <ele>16.811157226562</ele>
        <time>2022-01-02T08:35:16Z</time>
      </trkpt>
      <trkpt lat="47.12157" lon="-1.54844">
        <ele>16.641967773438</ele>
        <time>2022-01-02T08:35:23Z</time>
      </trkpt>
      <trkpt lat="47.12164" lon="-1.54839">
        <ele>15.502075195312</ele>
        <time>2022-01-02T08:35:30Z</time>
      </trkpt>
      <trkpt lat="47.12171" lon="-1.54833">
        <ele>15.602600097656</ele>
        <time>2022-01-02T08:35:37Z</time>
      </trkpt>
      <trkpt lat="47.12179" lon="-1.54829">
        <ele>14.953125</ele>
        <time>2022-01-02T08:35:45Z</time>
      </trkpt>
      <trkpt lat="47.12187" lon="-1.54823">
        <ele>14.233520507812</ele>
        <time>2022-01-02T08:35:53Z</time>
      </trkpt>
      <trkpt lat="47.12195" lon="-1.54821">
        <ele>16.307250976562</ele>
        <time>2022-01-02T08:35:59Z</time>
      </trkpt>
      <trkpt lat="47.12203" lon="-1.54815">
        <ele>17.40380859375</ele>
        <time>2022-01-02T08:36:05Z</time>
      </trkpt>
      <trkpt lat="47.1221" lon="-1.5481">
        <ele>17.729125976562</ele>
        <time>2022-01-02T08:36:12Z</time>
      </trkpt>
      <trkpt lat="47.12218" lon="-1.54806">
        <ele>17.832885742188</ele>
        <time>2022-01-02T08:36:20Z</time>
      </trkpt>
      <trkpt lat="47.12226" lon="-1.548">
        <ele>17.967346191406</ele>
        <time>2022-01-02T08:36:28Z</time>
      </trkpt>
      <trkpt lat="47.12233" lon="-1.54794">
        <ele>16.975952148438</ele>
        <time>2022-01-02T08:36:36Z</time>
      </trkpt>
      <trkpt lat="47.1224" lon="-1.54787">
        <ele>15.628601074219</ele>
        <time>2022-01-02T08:36:44Z</time>
      </trkpt>
      <trkpt lat="47.12247" lon="-1.5478">
        <ele>15.456359863281</ele>
        <time>2022-01-02T08:36:52Z</time>
      </trkpt>
      <trkpt lat="47.12254" lon="-1.54771">
        <ele>13.695983886719</ele>
        <time>2022-01-02T08:37:00Z</time>
      </trkpt>
      <trkpt lat="47.1226" lon="-1.54764">
        <ele>13.627624511719</ele>
        <time>2022-01-02T08:37:07Z</time>
      </trkpt>
      <trkpt lat="47.12267" lon="-1.54755">
        <ele>13.567626953125</ele>
        <time>2022-01-02T08:37:15Z</time>
      </trkpt>
      <trkpt lat="47.12271" lon="-1.54745">
        <ele>14.777709960938</ele>
        <time>2022-01-02T08:37:22Z</time>
      </trkpt>
      <trkpt lat="47.12266" lon="-1.54735">
        <ele>14.1376953125</ele>
        <time>2022-01-02T08:37:30Z</time>
      </trkpt>
      <trkpt lat="47.12261" lon="-1.54725">
        <ele>13.474914550781</ele>
        <time>2022-01-02T08:37:38Z</time>
      </trkpt>
      <trkpt lat="47.12256" lon="-1.54716">
        <ele>13.447387695312</ele>
        <time>2022-01-02T08:37:45Z</time>
      </trkpt>
      <trkpt lat="47.1225" lon="-1.54707">
        <ele>13.875366210938</ele>
        <time>2022-01-02T08:37:52Z</time>
      </trkpt>
      <trkpt lat="47.12245" lon="-1.54698">
        <ele>14.197265625</ele>
        <time>2022-01-02T08:37:59Z</time>
      </trkpt>
      <trkpt lat="47.12239" lon="-1.54688">
        <ele>13.423706054688</ele>
        <time>2022-01-02T08:38:07Z</time>
      </trkpt>
      <trkpt lat="47.12234" lon="-1.54678">
        <ele>13.835205078125</ele>
        <time>2022-01-02T08:38:15Z</time>
      </trkpt>
      <trkpt lat="47.1223" lon="-1.54668">
        <ele>14.583129882812</ele>
        <time>2022-01-02T08:38:23Z</time>
      </trkpt>
      <trkpt lat="47.12227" lon="-1.54657">
        <ele>14.800415039062</ele>
        <time>2022-01-02T08:38:31Z</time>
      </trkpt>
      <trkpt lat="47.12226" lon="-1.54645">
        <ele>15.26025390625</ele>
        <time>2022-01-02T08:38:38Z</time>
      </trkpt>
      <trkpt lat="47.12226" lon="-1.54633">
        <ele>16.041381835938</ele>
        <time>2022-01-02T08:38:46Z</time>
      </trkpt>
      <trkpt lat="47.12227" lon="-1.5462">
        <ele>15.162902832031</ele>
        <time>2022-01-02T08:38:54Z</time>
      </trkpt>
      <trkpt lat="47.1223" lon="-1.54608">
        <ele>16.675048828125</ele>
        <time>2022-01-02T08:39:02Z</time>
      </trkpt>
      <trkpt lat="47.12232" lon="-1.54597">
        <ele>15.202880859375</ele>
        <time>2022-01-02T08:39:10Z</time>
      </trkpt>
      <trkpt lat="47.12235" lon="-1.54585">
        <ele>17.737060546875</ele>
        <time>2022-01-02T08:39:18Z</time>
      </trkpt>
      <trkpt lat="47.12239" lon="-1.54574">
        <ele>18.99755859375</ele>
        <time>2022-01-02T08:39:24Z</time>
      </trkpt>
      <trkpt lat="47.12242" lon="-1.54564">
        <ele>18.175476074219</ele>
        <time>2022-01-02T08:39:31Z</time>
      </trkpt>
      <trkpt lat="47.12245" lon="-1.54552">
        <ele>18.339538574219</ele>
        <time>2022-01-02T08:39:39Z</time>
      </trkpt>
      <trkpt lat="47.12248" lon="-1.5454">
        <ele>18.370788574219</ele>
        <time>2022-01-02T08:39:47Z</time>
      </trkpt>
      <trkpt lat="47.12249" lon="-1.54529">
        <ele>16.945739746094</ele>
        <time>2022-01-02T08:39:55Z</time>
      </trkpt>
      <trkpt lat="47.12251" lon="-1.54517">
        <ele>16.6171875</ele>
        <time>2022-01-02T08:40:03Z</time>
      </trkpt>
      <trkpt lat="47.12252" lon="-1.54504">
        <ele>14.333435058594</ele>
        <time>2022-01-02T08:40:11Z</time>
      </trkpt>
      <trkpt lat="47.12253" lon="-1.54491">
        <ele>14.1220703125</ele>
        <time>2022-01-02T08:40:20Z</time>
      </trkpt>
      <trkpt lat="47.12254" lon="-1.54479">
        <ele>16.026550292969</ele>
        <time>2022-01-02T08:40:28Z</time>
      </trkpt>
      <trkpt lat="47.12253" lon="-1.54466">
        <ele>16.113952636719</ele>
        <time>2022-01-02T08:40:36Z</time>
      </trkpt>
      <trkpt lat="47.12254" lon="-1.54453">
        <ele>15.396850585938</ele>
        <time>2022-01-02T08:40:44Z</time>
      </trkpt>
      <trkpt lat="47.12253" lon="-1.54441">
        <ele>15.446350097656</ele>
        <time>2022-01-02T08:40:52Z</time>
      </trkpt>
      <trkpt lat="47.12252" lon="-1.54428">
        <ele>15.424926757812</ele>
        <time>2022-01-02T08:41:01Z</time>
      </trkpt>
      <trkpt lat="47.12251" lon="-1.54416">
        <ele>14.878356933594</ele>
        <time>2022-01-02T08:41:09Z</time>
      </trkpt>
      <trkpt lat="47.12249" lon="-1.54405">
        <ele>14.635192871094</ele>
        <time>2022-01-02T08:41:17Z</time>
      </trkpt>
      <trkpt lat="47.12246" lon="-1.54394">
        <ele>15.080017089844</ele>
        <time>2022-01-02T08:41:25Z</time>
      </trkpt>
      <trkpt lat="47.12242" lon="-1.54382">
        <ele>15.6123046875</ele>
        <time>2022-01-02T08:41:33Z</time>
      </trkpt>
      <trkpt lat="47.12236" lon="-1.54372">
        <ele>17.240356445312</ele>
        <time>2022-01-02T08:41:42Z</time>
      </trkpt>
      <trkpt lat="47.12231" lon="-1.54364">
        <ele>16.981384277344</ele>
        <time>2022-01-02T08:41:50Z</time>
      </trkpt>
      <trkpt lat="47.12225" lon="-1.54356">
        <ele>17.865356445312</ele>
        <time>2022-01-02T08:41:57Z</time>
      </trkpt>
      <trkpt lat="47.1222" lon="-1.54348">
        <ele>18.176513671875</ele>
        <time>2022-01-02T08:42:04Z</time>
      </trkpt>
      <trkpt lat="47.12214" lon="-1.54339">
        <ele>18.475036621094</ele>
        <time>2022-01-02T08:42:12Z</time>
      </trkpt>
      <trkpt lat="47.12208" lon="-1.54329">
        <ele>19.488037109375</ele>
        <time>2022-01-02T08:42:20Z</time>
      </trkpt>
      <trkpt lat="47.12203" lon="-1.54319">
        <ele>19.463989257812</ele>
        <time>2022-01-02T08:42:28Z</time>
      </trkpt>
      <trkpt lat="47.12198" lon="-1.54309">
        <ele>20.256408691406</ele>
        <time>2022-01-02T08:42:36Z</time>
      </trkpt>
      <trkpt lat="47.12194" lon="-1.54298">
        <ele>21.206909179688</ele>
        <time>2022-01-02T08:42:43Z</time>
      </trkpt>
      <trkpt lat="47.1219" lon="-1.54287">
        <ele>21.592651367188</ele>
        <time>2022-01-02T08:42:51Z</time>
      </trkpt>
      <trkpt lat="47.12187" lon="-1.54277">
        <ele>21.143493652344</ele>
        <time>2022-01-02T08:42:59Z</time>
      </trkpt>
      <trkpt lat="47.12183" lon="-1.54266">
        <ele>20.775695800781</ele>
        <time>2022-01-02T08:43:07Z</time>
      </trkpt>
      <trkpt lat="47.12179" lon="-1.54255">
        <ele>20.47802734375</ele>
        <time>2022-01-02T08:43:15Z</time>
      </trkpt>
      <trkpt lat="47.12176" lon="-1.54244">
        <ele>20.948120117188</ele>
        <time>2022-01-02T08:43:23Z</time>
      </trkpt>
      <trkpt lat="47.1217" lon="-1.54235">
        <ele>21.9970703125</ele>
        <time>2022-01-02T08:43:32Z</time>
      </trkpt>
      <trkpt lat="47.12163" lon="-1.54226">
        <ele>21.053527832031</ele>
        <time>2022-01-02T08:43:41Z</time>
      </trkpt>
      <trkpt lat="47.12157" lon="-1.54217">
        <ele>21.828857421875</ele>
        <time>2022-01-02T08:43:49Z</time>
      </trkpt>
      <trkpt lat="47.12151" lon="-1.54207">
        <ele>22.078308105469</ele>
        <time>2022-01-02T08:43:58Z</time>
      </trkpt>
      <trkpt lat="47.12144" lon="-1.542">
        <ele>21.198547363281</ele>
        <time>2022-01-02T08:44:07Z</time>
      </trkpt>
      <trkpt lat="47.12138" lon="-1.54193">
        <ele>20.861328125</ele>
        <time>2022-01-02T08:44:15Z</time>
      </trkpt>
      <trkpt lat="47.12131" lon="-1.54184">
        <ele>20.730651855469</ele>
        <time>2022-01-02T08:44:23Z</time>
      </trkpt>
      <trkpt lat="47.12124" lon="-1.54177">
        <ele>21.426391601562</ele>
        <time>2022-01-02T08:44:31Z</time>
      </trkpt>
      <trkpt lat="47.12117" lon="-1.54168">
        <ele>21.717651367188</ele>
        <time>2022-01-02T08:44:40Z</time>
      </trkpt>
      <trkpt lat="47.12111" lon="-1.54159">
        <ele>22.174499511719</ele>
        <time>2022-01-02T08:44:48Z</time>
      </trkpt>
      <trkpt lat="47.12106" lon="-1.54151">
        <ele>22.000366210938</ele>
        <time>2022-01-02T08:44:55Z</time>
      </trkpt>
      <trkpt lat="47.121" lon="-1.54142">
        <ele>22.6162109375</ele>
        <time>2022-01-02T08:45:02Z</time>
      </trkpt>
      <trkpt lat="47.12094" lon="-1.54134">
        <ele>22.291748046875</ele>
        <time>2022-01-02T08:45:09Z</time>
      </trkpt>
      <trkpt lat="47.12088" lon="-1.54125">
        <ele>22.617614746094</ele>
        <time>2022-01-02T08:45:17Z</time>
      </trkpt>
      <trkpt lat="47.12083" lon="-1.54115">
        <ele>22.83251953125</ele>
        <time>2022-01-02T08:45:25Z</time>
      </trkpt>
      <trkpt lat="47.12078" lon="-1.54105">
        <ele>23.901184082031</ele>
        <time>2022-01-02T08:45:34Z</time>
      </trkpt>
      <trkpt lat="47.12072" lon="-1.54095">
        <ele>23.547424316406</ele>
        <time>2022-01-02T08:45:42Z</time>
      </trkpt>
      <trkpt lat="47.12069" lon="-1.54084">
        <ele>23.830993652344</ele>
        <time>2022-01-02T08:45:50Z</time>
      </trkpt>
      <trkpt lat="47.12065" lon="-1.54073">
        <ele>24.516723632812</ele>
        <time>2022-01-02T08:45:57Z</time>
      </trkpt>
      <trkpt lat="47.12062" lon="-1.54061">
        <ele>24.801818847656</ele>
        <time>2022-01-02T08:46:05Z</time>
      </trkpt>
      <trkpt lat="47.12058" lon="-1.54049">
        <ele>24.305297851562</ele>
        <time>2022-01-02T08:46:13Z</time>
      </trkpt>
      <trkpt lat="47.12056" lon="-1.54037">
        <ele>24.258422851562</ele>
        <time>2022-01-02T08:46:21Z</time>
      </trkpt>
      <trkpt lat="47.12054" lon="-1.54026">
        <ele>23.671569824219</ele>
        <time>2022-01-02T08:46:29Z</time>
      </trkpt>
      <trkpt lat="47.12051" lon="-1.54014">
        <ele>22.553894042969</ele>
        <time>2022-01-02T08:46:37Z</time>
      </trkpt>
      <trkpt lat="47.12049" lon="-1.54003">
        <ele>22.353576660156</ele>
        <time>2022-01-02T08:46:45Z</time>
      </trkpt>
      <trkpt lat="47.12046" lon="-1.53991">
        <ele>22.133117675781</ele>
        <time>2022-01-02T08:46:53Z</time>
      </trkpt>
      <trkpt lat="47.12045" lon="-1.5398">
        <ele>21.255493164062</ele>
        <time>2022-01-02T08:47:00Z</time>
      </trkpt>
      <trkpt lat="47.12052" lon="-1.53975">
        <ele>21.902587890625</ele>
        <time>2022-01-02T08:47:07Z</time>
      </trkpt>
      <trkpt lat="47.12061" lon="-1.53975">
        <ele>22.759399414062</ele>
        <time>2022-01-02T08:47:16Z</time>
      </trkpt>
      <trkpt lat="47.1207" lon="-1.53973">
        <ele>21.922241210938</ele>
        <time>2022-01-02T08:47:25Z</time>
      </trkpt>
      <trkpt lat="47.12079" lon="-1.53973">
        <ele>20.808837890625</ele>
        <time>2022-01-02T08:47:33Z</time>
      </trkpt>
      <trkpt lat="47.12087" lon="-1.5397">
        <ele>21.341857910156</ele>
        <time>2022-01-02T08:47:41Z</time>
      </trkpt>
      <trkpt lat="47.12091" lon="-1.5396">
        <ele>20.894836425781</ele>
        <time>2022-01-02T08:47:49Z</time>
      </trkpt>
      <trkpt lat="47.12093" lon="-1.53947">
        <ele>20.035522460938</ele>
        <time>2022-01-02T08:47:57Z</time>
      </trkpt>
      <trkpt lat="47.12096" lon="-1.53936">
        <ele>21.090209960938</ele>
        <time>2022-01-02T08:48:04Z</time>
      </trkpt>
      <trkpt lat="47.12099" lon="-1.53924">
        <ele>21.857788085938</ele>
        <time>2022-01-02T08:48:12Z</time>
      </trkpt>
      <trkpt lat="47.12102" lon="-1.53913">
        <ele>22.425170898438</ele>
        <time>2022-01-02T08:48:20Z</time>
      </trkpt>
      <trkpt lat="47.12105" lon="-1.53901">
        <ele>21.876708984375</ele>
        <time>2022-01-02T08:48:28Z</time>
      </trkpt>
      <trkpt lat="47.12107" lon="-1.53889">
        <ele>21.02099609375</ele>
        <time>2022-01-02T08:48:36Z</time>
      </trkpt>
      <trkpt lat="47.1211" lon="-1.53877">
        <ele>21.023193359375</ele>
        <time>2022-01-02T08:48:44Z</time>
      </trkpt>
      <trkpt lat="47.12112" lon="-1.53865">
        <ele>21.464599609375</ele>
        <time>2022-01-02T08:48:52Z</time>
      </trkpt>
      <trkpt lat="47.12113" lon="-1.53853">
        <ele>21.611145019531</ele>
        <time>2022-01-02T08:48:59Z</time>
      </trkpt>
      <trkpt lat="47.12115" lon="-1.5384">
        <ele>21.081726074219</ele>
        <time>2022-01-02T08:49:07Z</time>
      </trkpt>
      <trkpt lat="47.12116" lon="-1.53828">
        <ele>20.580078125</ele>
        <time>2022-01-02T08:49:15Z</time>
      </trkpt>
      <trkpt lat="47.12118" lon="-1.53816">
        <ele>21.030395507812</ele>
        <time>2022-01-02T08:49:23Z</time>
      </trkpt>
      <trkpt lat="47.12118" lon="-1.53805">
        <ele>19.748596191406</ele>
        <time>2022-01-02T08:49:30Z</time>
      </trkpt>
      <trkpt lat="47.12118" lon="-1.53792">
        <ele>20.148010253906</ele>
        <time>2022-01-02T08:49:38Z</time>
      </trkpt>
      <trkpt lat="47.12119" lon="-1.5378">
        <ele>20.386596679688</ele>
        <time>2022-01-02T08:49:46Z</time>
      </trkpt>
      <trkpt lat="47.12118" lon="-1.53768">
        <ele>22.053344726562</ele>
        <time>2022-01-02T08:49:54Z</time>
      </trkpt>
      <trkpt lat="47.12118" lon="-1.53757">
        <ele>21.721008300781</ele>
        <time>2022-01-02T08:50:01Z</time>
      </trkpt>
      <trkpt lat="47.12118" lon="-1.53745">
        <ele>22.533081054688</ele>
        <time>2022-01-02T08:50:08Z</time>
      </trkpt>
      <trkpt lat="47.12119" lon="-1.53734">
        <ele>23.60205078125</ele>
        <time>2022-01-02T08:50:14Z</time>
      </trkpt>
      <trkpt lat="47.12119" lon="-1.53721">
        <ele>23.83984375</ele>
        <time>2022-01-02T08:50:22Z</time>
      </trkpt>
      <trkpt lat="47.12119" lon="-1.53709">
        <ele>23.477233886719</ele>
        <time>2022-01-02T08:50:30Z</time>
      </trkpt>
      <trkpt lat="47.12123" lon="-1.53699">
        <ele>22.931579589844</ele>
        <time>2022-01-02T08:51:28Z</time>
      </trkpt>
      <trkpt lat="47.12124" lon="-1.53687">
        <ele>23.258422851562</ele>
        <time>2022-01-02T08:51:35Z</time>
      </trkpt>
      <trkpt lat="47.12124" lon="-1.53675">
        <ele>21.284606933594</ele>
        <time>2022-01-02T08:51:44Z</time>
      </trkpt>
      <trkpt lat="47.12125" lon="-1.53662">
        <ele>19.286071777344</ele>
        <time>2022-01-02T08:51:54Z</time>
      </trkpt>
      <trkpt lat="47.12126" lon="-1.5365">
        <ele>17.589111328125</ele>
        <time>2022-01-02T08:52:03Z</time>
      </trkpt>
      <trkpt lat="47.12128" lon="-1.53638">
        <ele>17.025817871094</ele>
        <time>2022-01-02T08:52:12Z</time>
      </trkpt>
      <trkpt lat="47.12129" lon="-1.53625">
        <ele>16.427612304688</ele>
        <time>2022-01-02T08:52:21Z</time>
      </trkpt>
      <trkpt lat="47.12134" lon="-1.53615">
        <ele>15.88330078125</ele>
        <time>2022-01-02T08:52:30Z</time>
      </trkpt>
      <trkpt lat="47.12138" lon="-1.53603">
        <ele>16.041625976562</ele>
        <time>2022-01-02T08:52:38Z</time>
      </trkpt>
      <trkpt lat="47.12142" lon="-1.53592">
        <ele>14.582763671875</ele>
        <time>2022-01-02T08:52:47Z</time>
      </trkpt>
      <trkpt lat="47.12144" lon="-1.5358">
        <ele>14.703369140625</ele>
        <time>2022-01-02T08:52:56Z</time>
      </trkpt>
      <trkpt lat="47.12147" lon="-1.53568">
        <ele>13.488647460938</ele>
        <time>2022-01-02T08:53:05Z</time>
      </trkpt>
      <trkpt lat="47.12151" lon="-1.53556">
        <ele>15.013916015625</ele>
        <time>2022-01-02T08:53:14Z</time>
      </trkpt>
      <trkpt lat="47.12155" lon="-1.53546">
        <ele>13.51171875</ele>
        <time>2022-01-02T08:53:22Z</time>
      </trkpt>
      <trkpt lat="47.12158" lon="-1.53535">
        <ele>13.607421875</ele>
        <time>2022-01-02T08:53:30Z</time>
      </trkpt>
      <trkpt lat="47.12161" lon="-1.53523">
        <ele>13.813781738281</ele>
        <time>2022-01-02T08:53:38Z</time>
      </trkpt>
      <trkpt lat="47.12165" lon="-1.53513">
        <ele>17.442077636719</ele>
        <time>2022-01-02T08:53:44Z</time>
      </trkpt>
      <trkpt lat="47.12174" lon="-1.5351">
        <ele>17.342590332031</ele>
        <time>2022-01-02T08:53:52Z</time>
      </trkpt>
      <trkpt lat="47.12182" lon="-1.53507">
        <ele>16.43505859375</ele>
        <time>2022-01-02T08:54:01Z</time>
      </trkpt>
      <trkpt lat="47.12191" lon="-1.53505">
        <ele>16.462890625</ele>
        <time>2022-01-02T08:54:08Z</time>
      </trkpt>
      <trkpt lat="47.12199" lon="-1.53504">
        <ele>13.530944824219</ele>
        <time>2022-01-02T08:54:15Z</time>
      </trkpt>
      <trkpt lat="47.12207" lon="-1.53503">
        <ele>13.136962890625</ele>
        <time>2022-01-02T08:54:22Z</time>
      </trkpt>
      <trkpt lat="47.12216" lon="-1.535">
        <ele>13.128295898438</ele>
        <time>2022-01-02T08:54:31Z</time>
      </trkpt>
      <trkpt lat="47.12224" lon="-1.53499">
        <ele>13.347717285156</ele>
        <time>2022-01-02T08:54:39Z</time>
      </trkpt>
      <trkpt lat="47.12232" lon="-1.53499">
        <ele>13.441650390625</ele>
        <time>2022-01-02T08:54:47Z</time>
      </trkpt>
      <trkpt lat="47.1224" lon="-1.53501">
        <ele>13.024108886719</ele>
        <time>2022-01-02T08:54:54Z</time>
      </trkpt>
      <trkpt lat="47.12248" lon="-1.53506">
        <ele>13.468383789062</ele>
        <time>2022-01-02T08:55:01Z</time>
      </trkpt>
      <trkpt lat="47.12256" lon="-1.5351">
        <ele>12.63232421875</ele>
        <time>2022-01-02T08:55:09Z</time>
      </trkpt>
      <trkpt lat="47.12264" lon="-1.53513">
        <ele>10.89501953125</ele>
        <time>2022-01-02T08:55:17Z</time>
      </trkpt>
      <trkpt lat="47.12272" lon="-1.53517">
        <ele>10.8271484375</ele>
        <time>2022-01-02T08:55:25Z</time>
      </trkpt>
      <trkpt lat="47.12279" lon="-1.5352">
        <ele>10.621154785156</ele>
        <time>2022-01-02T08:55:32Z</time>
      </trkpt>
      <trkpt lat="47.12287" lon="-1.53524">
        <ele>7.869140625</ele>
        <time>2022-01-02T08:55:40Z</time>
      </trkpt>
      <trkpt lat="47.12295" lon="-1.53529">
        <ele>7.29931640625</ele>
        <time>2022-01-02T08:55:48Z</time>
      </trkpt>
      <trkpt lat="47.12303" lon="-1.53535">
        <ele>5.6656494140625</ele>
        <time>2022-01-02T08:55:56Z</time>
      </trkpt>
      <trkpt lat="47.12309" lon="-1.53542">
        <ele>7.1361083984375</ele>
        <time>2022-01-02T08:56:03Z</time>
      </trkpt>
      <trkpt lat="47.12316" lon="-1.53548">
        <ele>10.428833007812</ele>
        <time>2022-01-02T08:56:11Z</time>
      </trkpt>
      <trkpt lat="47.12324" lon="-1.53554">
        <ele>7.9664306640625</ele>
        <time>2022-01-02T08:56:19Z</time>
      </trkpt>
      <trkpt lat="47.12332" lon="-1.5356">
        <ele>5.9955444335938</ele>
        <time>2022-01-02T08:56:27Z</time>
      </trkpt>
      <trkpt lat="47.12339" lon="-1.53567">
        <ele>5.890869140625</ele>
        <time>2022-01-02T08:56:35Z</time>
      </trkpt>
      <trkpt lat="47.12346" lon="-1.53575">
        <ele>4.882568359375</ele>
        <time>2022-01-02T08:56:44Z</time>
      </trkpt>
      <trkpt lat="47.12351" lon="-1.53585">
        <ele>8.1630859375</ele>
        <time>2022-01-02T08:56:52Z</time>
      </trkpt>
      <trkpt lat="47.12355" lon="-1.53596">
        <ele>10.718627929688</ele>
        <time>2022-01-02T08:57:01Z</time>
      </trkpt>
      <trkpt lat="47.12359" lon="-1.53606">
        <ele>11.174255371094</ele>
        <time>2022-01-02T08:57:08Z</time>
      </trkpt>
      <trkpt lat="47.12363" lon="-1.53618">
        <ele>13.36669921875</ele>
        <time>2022-01-02T08:57:16Z</time>
      </trkpt>
      <trkpt lat="47.1237" lon="-1.53624">
        <ele>12.813415527344</ele>
        <time>2022-01-02T08:57:25Z</time>
      </trkpt>
      <trkpt lat="47.12378" lon="-1.5362">
        <ele>10.099426269531</ele>
        <time>2022-01-02T08:57:33Z</time>
      </trkpt>
      <trkpt lat="47.12386" lon="-1.53619">
        <ele>9.2962036132812</ele>
        <time>2022-01-02T08:57:41Z</time>
      </trkpt>
      <trkpt lat="47.12394" lon="-1.53623">
        <ele>7.11376953125</ele>
        <time>2022-01-02T08:57:49Z</time>
      </trkpt>
      <trkpt lat="47.124" lon="-1.53633">
        <ele>5.6524658203125</ele>
        <time>2022-01-02T08:57:58Z</time>
      </trkpt>
      <trkpt lat="47.12405" lon="-1.53643">
        <ele>2.4578857421875</ele>
        <time>2022-01-02T08:58:07Z</time>
      </trkpt>
      <trkpt lat="47.12411" lon="-1.53652">
        <ele>0.82427978515625</ele>
        <time>2022-01-02T08:58:16Z</time>
      </trkpt>
      <trkpt lat="47.12417" lon="-1.53661">
        <ele>-1.8370971679688</ele>
        <time>2022-01-02T08:58:25Z</time>
      </trkpt>
      <trkpt lat="47.12422" lon="-1.5367">
        <ele>-4.8322143554688</ele>
        <time>2022-01-02T08:58:33Z</time>
      </trkpt>
      <trkpt lat="47.12427" lon="-1.53681">
        <ele>-4.4458618164062</ele>
        <time>2022-01-02T08:58:42Z</time>
      </trkpt>
      <trkpt lat="47.12431" lon="-1.53691">
        <ele>-5.5617065429688</ele>
        <time>2022-01-02T08:58:50Z</time>
      </trkpt>
      <trkpt lat="47.12437" lon="-1.53701">
        <ele>-6.0206909179688</ele>
        <time>2022-01-02T08:58:58Z</time>
      </trkpt>
      <trkpt lat="47.12442" lon="-1.53711">
        <ele>-2.4832153320312</ele>
        <time>2022-01-02T08:59:06Z</time>
      </trkpt>
      <trkpt lat="47.12444" lon="-1.53723">
        <ele>1.3521728515625</ele>
        <time>2022-01-02T08:59:12Z</time>
      </trkpt>
      <trkpt lat="47.12448" lon="-1.53734">
        <ele>1.7661743164062</ele>
        <time>2022-01-02T08:59:23Z</time>
      </trkpt>
      <trkpt lat="47.12452" lon="-1.53745">
        <ele>0.262451171875</ele>
        <time>2022-01-02T08:59:34Z</time>
      </trkpt>
      <trkpt lat="47.12457" lon="-1.53755">
        <ele>-1.0250854492188</ele>
        <time>2022-01-02T08:59:44Z</time>
      </trkpt>
      <trkpt lat="47.12461" lon="-1.53766">
        <ele>-3.2398681640625</ele>
        <time>2022-01-02T08:59:54Z</time>
      </trkpt>
      <trkpt lat="47.12466" lon="-1.53776">
        <ele>-3.6058349609375</ele>
        <time>2022-01-02T09:00:03Z</time>
      </trkpt>
      <trkpt lat="47.1247" lon="-1.53786">
        <ele>-5.4279174804688</ele>
        <time>2022-01-02T09:00:12Z</time>
      </trkpt>
      <trkpt lat="47.12475" lon="-1.53798">
        <ele>-5.5951538085938</ele>
        <time>2022-01-02T09:00:22Z</time>
      </trkpt>
      <trkpt lat="47.12477" lon="-1.53808">
        <ele>-5.0785522460938</ele>
        <time>2022-01-02T09:00:28Z</time>
      </trkpt>
      <trkpt lat="47.12478" lon="-1.53821">
        <ele>-0.36187744140625</ele>
        <time>2022-01-02T09:00:33Z</time>
      </trkpt>
      <trkpt lat="47.12478" lon="-1.53833">
        <ele>2.510986328125</ele>
        <time>2022-01-02T09:00:39Z</time>
      </trkpt>
      <trkpt lat="47.12474" lon="-1.53844">
        <ele>4.0044555664062</ele>
        <time>2022-01-02T09:00:47Z</time>
      </trkpt>
      <trkpt lat="47.12467" lon="-1.53852">
        <ele>6.9964599609375</ele>
        <time>2022-01-02T09:00:55Z</time>
      </trkpt>
      <trkpt lat="47.12471" lon="-1.53863">
        <ele>5.6826782226562</ele>
        <time>2022-01-02T09:01:08Z</time>
      </trkpt>
      <trkpt lat="47.12475" lon="-1.53873">
        <ele>8.3792724609375</ele>
        <time>2022-01-02T09:01:15Z</time>
      </trkpt>
      <trkpt lat="47.12482" lon="-1.5388">
        <ele>9.2171630859375</ele>
        <time>2022-01-02T09:01:23Z</time>
      </trkpt>
      <trkpt lat="47.12491" lon="-1.53881">
        <ele>7.0651245117188</ele>
        <time>2022-01-02T09:01:32Z</time>
      </trkpt>
      <trkpt lat="47.12498" lon="-1.53876">
        <ele>7.3884887695312</ele>
        <time>2022-01-02T09:01:41Z</time>
      </trkpt>
      <trkpt lat="47.12503" lon="-1.53866">
        <ele>5.3239135742188</ele>
        <time>2022-01-02T09:01:51Z</time>
      </trkpt>
      <trkpt lat="47.12506" lon="-1.53856">
        <ele>4.7994995117188</ele>
        <time>2022-01-02T09:01:59Z</time>
      </trkpt>
      <trkpt lat="47.12503" lon="-1.53867">
        <ele>3.67333984375</ele>
        <time>2022-01-02T09:02:14Z</time>
      </trkpt>
      <trkpt lat="47.12502" lon="-1.53881">
        <ele>4.659423828125</ele>
        <time>2022-01-02T09:02:26Z</time>
      </trkpt>
      <trkpt lat="47.12509" lon="-1.53888">
        <ele>1.9268798828125</ele>
        <time>2022-01-02T09:02:35Z</time>
      </trkpt>
      <trkpt lat="47.12515" lon="-1.53896">
        <ele>1.7969970703125</ele>
        <time>2022-01-02T09:02:43Z</time>
      </trkpt>
      <trkpt lat="47.12522" lon="-1.53904">
        <ele>3.43603515625</ele>
        <time>2022-01-02T09:02:51Z</time>
      </trkpt>
      <trkpt lat="47.12528" lon="-1.53914">
        <ele>5.5322265625</ele>
        <time>2022-01-02T09:02:59Z</time>
      </trkpt>
      <trkpt lat="47.12533" lon="-1.53924">
        <ele>1.9700927734375</ele>
        <time>2022-01-02T09:03:29Z</time>
      </trkpt>
      <trkpt lat="47.12538" lon="-1.53934">
        <ele>1.0152587890625</ele>
        <time>2022-01-02T09:03:39Z</time>
      </trkpt>
      <trkpt lat="47.12536" lon="-1.53947">
        <ele>-0.7890625</ele>
        <time>2022-01-02T09:03:51Z</time>
      </trkpt>
      <trkpt lat="47.12535" lon="-1.53959">
        <ele>1.7824096679688</ele>
        <time>2022-01-02T09:04:18Z</time>
      </trkpt>
      <trkpt lat="47.12535" lon="-1.53971">
        <ele>2.3829345703125</ele>
        <time>2022-01-02T09:04:26Z</time>
      </trkpt>
      <trkpt lat="47.12537" lon="-1.53983">
        <ele>2.059814453125</ele>
        <time>2022-01-02T09:04:35Z</time>
      </trkpt>
      <trkpt lat="47.12539" lon="-1.53996">
        <ele>1.1015625</ele>
        <time>2022-01-02T09:04:45Z</time>
      </trkpt>
      <trkpt lat="47.1254" lon="-1.54007">
        <ele>3.1776733398438</ele>
        <time>2022-01-02T09:04:50Z</time>
      </trkpt>
      <trkpt lat="47.12542" lon="-1.5402">
        <ele>3.5438842773438</ele>
        <time>2022-01-02T09:04:58Z</time>
      </trkpt>
      <trkpt lat="47.12546" lon="-1.54031">
        <ele>1.210205078125</ele>
        <time>2022-01-02T09:05:08Z</time>
      </trkpt>
      <trkpt lat="47.12549" lon="-1.54043">
        <ele>1.5396118164062</ele>
        <time>2022-01-02T09:05:18Z</time>
      </trkpt>
      <trkpt lat="47.12551" lon="-1.54054">
        <ele>0.7548828125</ele>
        <time>2022-01-02T09:05:26Z</time>
      </trkpt>
      <trkpt lat="47.12549" lon="-1.54066">
        <ele>-0.31500244140625</ele>
        <time>2022-01-02T09:05:35Z</time>
      </trkpt>
      <trkpt lat="47.12549" lon="-1.54079">
        <ele>-2.5715942382812</ele>
        <time>2022-01-02T09:05:45Z</time>
      </trkpt>
      <trkpt lat="47.12548" lon="-1.5409">
        <ele>-2.3565673828125</ele>
        <time>2022-01-02T09:05:52Z</time>
      </trkpt>
      <trkpt lat="47.12546" lon="-1.54102">
        <ele>-1.513671875</ele>
        <time>2022-01-02T09:05:59Z</time>
      </trkpt>
      <trkpt lat="47.12546" lon="-1.54114">
        <ele>0.22369384765625</ele>
        <time>2022-01-02T09:06:05Z</time>
      </trkpt>
      <trkpt lat="47.12546" lon="-1.54126">
        <ele>0.58612060546875</ele>
        <time>2022-01-02T09:06:12Z</time>
      </trkpt>
      <trkpt lat="47.12546" lon="-1.54139">
        <ele>-2.4044189453125</ele>
        <time>2022-01-02T09:06:22Z</time>
      </trkpt>
      <trkpt lat="47.12547" lon="-1.54152">
        <ele>-3.0175170898438</ele>
        <time>2022-01-02T09:06:30Z</time>
      </trkpt>
      <trkpt lat="47.12548" lon="-1.54164">
        <ele>-1.4332885742188</ele>
        <time>2022-01-02T09:06:37Z</time>
      </trkpt>
      <trkpt lat="47.12549" lon="-1.54176">
        <ele>-1.4450073242188</ele>
        <time>2022-01-02T09:06:45Z</time>
      </trkpt>
      <trkpt lat="47.12548" lon="-1.54188">
        <ele>-1.708740234375</ele>
        <time>2022-01-02T09:06:53Z</time>
      </trkpt>
      <trkpt lat="47.12548" lon="-1.54201">
        <ele>-0.34429931640625</ele>
        <time>2022-01-02T09:07:00Z</time>
      </trkpt>
      <trkpt lat="47.12548" lon="-1.54214">
        <ele>0.61126708984375</ele>
        <time>2022-01-02T09:07:08Z</time>
      </trkpt>
      <trkpt lat="47.12549" lon="-1.54226">
        <ele>0.08502197265625</ele>
        <time>2022-01-02T09:07:15Z</time>
      </trkpt>
      <trkpt lat="47.12549" lon="-1.54238">
        <ele>2.1685180664062</ele>
        <time>2022-01-02T09:07:22Z</time>
      </trkpt>
      <trkpt lat="47.12552" lon="-1.5425">
        <ele>1.7216186523438</ele>
        <time>2022-01-02T09:07:30Z</time>
      </trkpt>
      <trkpt lat="47.12554" lon="-1.54262">
        <ele>-1.0048828125</ele>
        <time>2022-01-02T09:07:39Z</time>
      </trkpt>
      <trkpt lat="47.12558" lon="-1.54274">
        <ele>-2.794677734375</ele>
        <time>2022-01-02T09:07:49Z</time>
      </trkpt>
      <trkpt lat="47.12561" lon="-1.54286">
        <ele>-3.6472778320312</ele>
        <time>2022-01-02T09:07:58Z</time>
      </trkpt>
      <trkpt lat="47.12566" lon="-1.54296">
        <ele>-1.8074340820312</ele>
        <time>2022-01-02T09:08:07Z</time>
      </trkpt>
      <trkpt lat="47.12573" lon="-1.54305">
        <ele>0.41796875</ele>
        <time>2022-01-02T09:08:14Z</time>
      </trkpt>
      <trkpt lat="47.1258" lon="-1.54307">
        <ele>0.68438720703125</ele>
        <time>2022-01-02T09:08:21Z</time>
      </trkpt>
      <trkpt lat="47.12587" lon="-1.54298">
        <ele>-0.41748046875</ele>
        <time>2022-01-02T09:08:41Z</time>
      </trkpt>
      <trkpt lat="47.12592" lon="-1.54289">
        <ele>0.8795166015625</ele>
        <time>2022-01-02T09:08:49Z</time>
      </trkpt>
      <trkpt lat="47.12595" lon="-1.54277">
        <ele>-0.27142333984375</ele>
        <time>2022-01-02T09:08:58Z</time>
      </trkpt>
      <trkpt lat="47.126" lon="-1.54267">
        <ele>-0.8658447265625</ele>
        <time>2022-01-02T09:09:07Z</time>
      </trkpt>
      <trkpt lat="47.12605" lon="-1.54256">
        <ele>0.621337890625</ele>
        <time>2022-01-02T09:09:16Z</time>
      </trkpt>
      <trkpt lat="47.12609" lon="-1.54245">
        <ele>1.3818969726562</ele>
        <time>2022-01-02T09:09:25Z</time>
      </trkpt>
      <trkpt lat="47.12613" lon="-1.54234">
        <ele>2.9229736328125</ele>
        <time>2022-01-02T09:11:27Z</time>
      </trkpt>
      <trkpt lat="47.12616" lon="-1.54222">
        <ele>4.8095703125</ele>
        <time>2022-01-02T09:11:39Z</time>
      </trkpt>
      <trkpt lat="47.12619" lon="-1.5421">
        <ele>2.8196411132812</ele>
        <time>2022-01-02T09:11:49Z</time>
      </trkpt>
      <trkpt lat="47.12622" lon="-1.54198">
        <ele>4.1508178710938</ele>
        <time>2022-01-02T09:11:56Z</time>
      </trkpt>
      <trkpt lat="47.12628" lon="-1.54189">
        <ele>7.7023315429688</ele>
        <time>2022-01-02T09:12:03Z</time>
      </trkpt>
      <trkpt lat="47.12636" lon="-1.54185">
        <ele>7.2700805664062</ele>
        <time>2022-01-02T09:12:12Z</time>
      </trkpt>
      <trkpt lat="47.12644" lon="-1.5419">
        <ele>7.4473266601562</ele>
        <time>2022-01-02T09:12:21Z</time>
      </trkpt>
      <trkpt lat="47.12652" lon="-1.54184">
        <ele>7.4795532226562</ele>
        <time>2022-01-02T09:12:30Z</time>
      </trkpt>
      <trkpt lat="47.12661" lon="-1.54186">
        <ele>6.3807983398438</ele>
        <time>2022-01-02T09:12:39Z</time>
      </trkpt>
      <trkpt lat="47.12667" lon="-1.54195">
        <ele>6.5850219726562</ele>
        <time>2022-01-02T09:12:48Z</time>
      </trkpt>
      <trkpt lat="47.12673" lon="-1.54204">
        <ele>6.75830078125</ele>
        <time>2022-01-02T09:12:56Z</time>
      </trkpt>
      <trkpt lat="47.1268" lon="-1.54211">
        <ele>5.8297729492188</ele>
        <time>2022-01-02T09:13:04Z</time>
      </trkpt>
      <trkpt lat="47.12688" lon="-1.54216">
        <ele>7.4411010742188</ele>
        <time>2022-01-02T09:13:12Z</time>
      </trkpt>
      <trkpt lat="47.12696" lon="-1.54221">
        <ele>10.237182617188</ele>
        <time>2022-01-02T09:13:20Z</time>
      </trkpt>
      <trkpt lat="47.12704" lon="-1.54225">
        <ele>11.724975585938</ele>
        <time>2022-01-02T09:13:29Z</time>
      </trkpt>
      <trkpt lat="47.12712" lon="-1.54228">
        <ele>11.721801757812</ele>
        <time>2022-01-02T09:13:36Z</time>
      </trkpt>
      <trkpt lat="47.1272" lon="-1.54232">
        <ele>12.310852050781</ele>
        <time>2022-01-02T09:13:44Z</time>
      </trkpt>
      <trkpt lat="47.12728" lon="-1.54236">
        <ele>11.768493652344</ele>
        <time>2022-01-02T09:13:52Z</time>
      </trkpt>
      <trkpt lat="47.12735" lon="-1.5424">
        <ele>12.288269042969</ele>
        <time>2022-01-02T09:13:59Z</time>
      </trkpt>
      <trkpt lat="47.12743" lon="-1.54244">
        <ele>11.488525390625</ele>
        <time>2022-01-02T09:14:06Z</time>
      </trkpt>
      <trkpt lat="47.12751" lon="-1.54249">
        <ele>12.086303710938</ele>
        <time>2022-01-02T09:14:15Z</time>
      </trkpt>
      <trkpt lat="47.12759" lon="-1.54255">
        <ele>10.619873046875</ele>
        <time>2022-01-02T09:14:23Z</time>
      </trkpt>
      <trkpt lat="47.12766" lon="-1.5426">
        <ele>10.111938476562</ele>
        <time>2022-01-02T09:14:30Z</time>
      </trkpt>
      <trkpt lat="47.12774" lon="-1.54264">
        <ele>10.511169433594</ele>
        <time>2022-01-02T09:14:38Z</time>
      </trkpt>
      <trkpt lat="47.12782" lon="-1.54268">
        <ele>11.207153320312</ele>
        <time>2022-01-02T09:14:46Z</time>
      </trkpt>
      <trkpt lat="47.12789" lon="-1.54274">
        <ele>11.783264160156</ele>
        <time>2022-01-02T09:14:54Z</time>
      </trkpt>
      <trkpt lat="47.12797" lon="-1.54279">
        <ele>11.870971679688</ele>
        <time>2022-01-02T09:15:02Z</time>
      </trkpt>
      <trkpt lat="47.12805" lon="-1.54282">
        <ele>13.637329101562</ele>
        <time>2022-01-02T09:15:10Z</time>
      </trkpt>
      <trkpt lat="47.12813" lon="-1.54287">
        <ele>14.020935058594</ele>
        <time>2022-01-02T09:15:18Z</time>
      </trkpt>
      <trkpt lat="47.12821" lon="-1.54291">
        <ele>14.190307617188</ele>
        <time>2022-01-02T09:15:26Z</time>
      </trkpt>
      <trkpt lat="47.12829" lon="-1.54295">
        <ele>15.088989257812</ele>
        <time>2022-01-02T09:15:34Z</time>
      </trkpt>
      <trkpt lat="47.12837" lon="-1.54299">
        <ele>15.279968261719</ele>
        <time>2022-01-02T09:15:42Z</time>
      </trkpt>
      <trkpt lat="47.12845" lon="-1.54303">
        <ele>14.917419433594</ele>
        <time>2022-01-02T09:15:50Z</time>
      </trkpt>
      <trkpt lat="47.12851" lon="-1.54312">
        <ele>13.841918945312</ele>
        <time>2022-01-02T09:15:59Z</time>
      </trkpt>
      <trkpt lat="47.12855" lon="-1.54324">
        <ele>13.536682128906</ele>
        <time>2022-01-02T09:16:08Z</time>
      </trkpt>
      <trkpt lat="47.12859" lon="-1.54335">
        <ele>12.779052734375</ele>
        <time>2022-01-02T09:16:17Z</time>
      </trkpt>
      <trkpt lat="47.12863" lon="-1.54347">
        <ele>12.4501953125</ele>
        <time>2022-01-02T09:16:26Z</time>
      </trkpt>
      <trkpt lat="47.12867" lon="-1.54357">
        <ele>14.481811523438</ele>
        <time>2022-01-02T09:16:33Z</time>
      </trkpt>
      <trkpt lat="47.12872" lon="-1.54367">
        <ele>13.304321289062</ele>
        <time>2022-01-02T09:16:40Z</time>
      </trkpt>
      <trkpt lat="47.12876" lon="-1.54379">
        <ele>12.869384765625</ele>
        <time>2022-01-02T09:16:49Z</time>
      </trkpt>
      <trkpt lat="47.12879" lon="-1.5439">
        <ele>11.430847167969</ele>
        <time>2022-01-02T09:16:57Z</time>
      </trkpt>
      <trkpt lat="47.12882" lon="-1.54403">
        <ele>12.400329589844</ele>
        <time>2022-01-02T09:17:05Z</time>
      </trkpt>
      <trkpt lat="47.12886" lon="-1.54414">
        <ele>13.514343261719</ele>
        <time>2022-01-02T09:17:12Z</time>
      </trkpt>
      <trkpt lat="47.12888" lon="-1.54425">
        <ele>14.5322265625</ele>
        <time>2022-01-02T09:17:20Z</time>
      </trkpt>
      <trkpt lat="47.12892" lon="-1.54437">
        <ele>13.42724609375</ele>
        <time>2022-01-02T09:17:28Z</time>
      </trkpt>
      <trkpt lat="47.12896" lon="-1.54448">
        <ele>12.099365234375</ele>
        <time>2022-01-02T09:17:36Z</time>
      </trkpt>
      <trkpt lat="47.129" lon="-1.54458">
        <ele>10.757202148438</ele>
        <time>2022-01-02T09:17:44Z</time>
      </trkpt>
      <trkpt lat="47.12906" lon="-1.54468">
        <ele>10.615844726562</ele>
        <time>2022-01-02T09:17:52Z</time>
      </trkpt>
      <trkpt lat="47.12912" lon="-1.54476">
        <ele>9.834228515625</ele>
        <time>2022-01-02T09:18:00Z</time>
      </trkpt>
      <trkpt lat="47.12919" lon="-1.54484">
        <ele>10.530578613281</ele>
        <time>2022-01-02T09:18:08Z</time>
      </trkpt>
      <trkpt lat="47.12926" lon="-1.5449">
        <ele>11.257751464844</ele>
        <time>2022-01-02T09:18:15Z</time>
      </trkpt>
      <trkpt lat="47.12925" lon="-1.54503">
        <ele>11.560302734375</ele>
        <time>2022-01-02T09:18:24Z</time>
      </trkpt>
      <trkpt lat="47.12919" lon="-1.54511">
        <ele>11.195556640625</ele>
        <time>2022-01-02T09:18:32Z</time>
      </trkpt>
      <trkpt lat="47.12913" lon="-1.54518">
        <ele>11.5654296875</ele>
        <time>2022-01-02T09:18:40Z</time>
      </trkpt>
      <trkpt lat="47.12907" lon="-1.54528">
        <ele>10.9091796875</ele>
        <time>2022-01-02T09:18:49Z</time>
      </trkpt>
      <trkpt lat="47.12903" lon="-1.5454">
        <ele>10.13134765625</ele>
        <time>2022-01-02T09:18:58Z</time>
      </trkpt>
      <trkpt lat="47.12905" lon="-1.54551">
        <ele>9.0833129882812</ele>
        <time>2022-01-02T09:19:06Z</time>
      </trkpt>
      <trkpt lat="47.1291" lon="-1.5456">
        <ele>10.168395996094</ele>
        <time>2022-01-02T09:19:13Z</time>
      </trkpt>
      <trkpt lat="47.12916" lon="-1.54568">
        <ele>12.491027832031</ele>
        <time>2022-01-02T09:19:20Z</time>
      </trkpt>
      <trkpt lat="47.12924" lon="-1.54574">
        <ele>12.343994140625</ele>
        <time>2022-01-02T09:19:28Z</time>
      </trkpt>
      <trkpt lat="47.12931" lon="-1.54582">
        <ele>13.712585449219</ele>
        <time>2022-01-02T09:19:36Z</time>
      </trkpt>
      <trkpt lat="47.12939" lon="-1.54586">
        <ele>14.651672363281</ele>
        <time>2022-01-02T09:19:44Z</time>
      </trkpt>
      <trkpt lat="47.12946" lon="-1.54593">
        <ele>14.932373046875</ele>
        <time>2022-01-02T09:19:52Z</time>
      </trkpt>
      <trkpt lat="47.12953" lon="-1.54601">
        <ele>15.377014160156</ele>
        <time>2022-01-02T09:20:00Z</time>
      </trkpt>
      <trkpt lat="47.12958" lon="-1.5461">
        <ele>15.464050292969</ele>
        <time>2022-01-02T09:20:08Z</time>
      </trkpt>
      <trkpt lat="47.12963" lon="-1.54619">
        <ele>15.181213378906</ele>
        <time>2022-01-02T09:20:16Z</time>
      </trkpt>
      <trkpt lat="47.12968" lon="-1.54629">
        <ele>15.809814453125</ele>
        <time>2022-01-02T09:20:24Z</time>
      </trkpt>
      <trkpt lat="47.12974" lon="-1.54639">
        <ele>16.86279296875</ele>
        <time>2022-01-02T09:20:32Z</time>
      </trkpt>
      <trkpt lat="47.12979" lon="-1.54648">
        <ele>17.400756835938</ele>
        <time>2022-01-02T09:20:40Z</time>
      </trkpt>
      <trkpt lat="47.12984" lon="-1.54658">
        <ele>17.622253417969</ele>
        <time>2022-01-02T09:20:48Z</time>
      </trkpt>
      <trkpt lat="47.12989" lon="-1.54667">
        <ele>17.623901367188</ele>
        <time>2022-01-02T09:20:55Z</time>
      </trkpt>
      <trkpt lat="47.12996" lon="-1.54676">
        <ele>16.886779785156</ele>
        <time>2022-01-02T09:21:03Z</time>
      </trkpt>
      <trkpt lat="47.13003" lon="-1.54683">
        <ele>17.17138671875</ele>
        <time>2022-01-02T09:21:11Z</time>
      </trkpt>
      <trkpt lat="47.13009" lon="-1.54691">
        <ele>17.817749023438</ele>
        <time>2022-01-02T09:21:18Z</time>
      </trkpt>
      <trkpt lat="47.13016" lon="-1.54697">
        <ele>17.723205566406</ele>
        <time>2022-01-02T09:21:25Z</time>
      </trkpt>
      <trkpt lat="47.13023" lon="-1.54703">
        <ele>17.92333984375</ele>
        <time>2022-01-02T09:21:33Z</time>
      </trkpt>
      <trkpt lat="47.13031" lon="-1.54709">
        <ele>17.458435058594</ele>
        <time>2022-01-02T09:21:41Z</time>
      </trkpt>
      <trkpt lat="47.13038" lon="-1.54715">
        <ele>17.840026855469</ele>
        <time>2022-01-02T09:21:48Z</time>
      </trkpt>
      <trkpt lat="47.13045" lon="-1.54722">
        <ele>17.548645019531</ele>
        <time>2022-01-02T09:21:56Z</time>
      </trkpt>
      <trkpt lat="47.13052" lon="-1.54728">
        <ele>17.639282226562</ele>
        <time>2022-01-02T09:22:03Z</time>
      </trkpt>
      <trkpt lat="47.13059" lon="-1.54733">
        <ele>17.001708984375</ele>
        <time>2022-01-02T09:22:10Z</time>
      </trkpt>
      <trkpt lat="47.13066" lon="-1.54739">
        <ele>17.768493652344</ele>
        <time>2022-01-02T09:22:17Z</time>
      </trkpt>
      <trkpt lat="47.13074" lon="-1.54745">
        <ele>17.821655273438</ele>
        <time>2022-01-02T09:22:25Z</time>
      </trkpt>
      <trkpt lat="47.13082" lon="-1.54751">
        <ele>17.933532714844</ele>
        <time>2022-01-02T09:22:33Z</time>
      </trkpt>
      <trkpt lat="47.13088" lon="-1.54758">
        <ele>17.142944335938</ele>
        <time>2022-01-02T09:22:40Z</time>
      </trkpt>
      <trkpt lat="47.13095" lon="-1.54765">
        <ele>17.2666015625</ele>
        <time>2022-01-02T09:22:48Z</time>
      </trkpt>
      <trkpt lat="47.13103" lon="-1.5477">
        <ele>16.707275390625</ele>
        <time>2022-01-02T09:22:56Z</time>
      </trkpt>
      <trkpt lat="47.1311" lon="-1.54776">
        <ele>16.603637695312</ele>
        <time>2022-01-02T09:23:04Z</time>
      </trkpt>
      <trkpt lat="47.13118" lon="-1.54782">
        <ele>17.079223632812</ele>
        <time>2022-01-02T09:23:12Z</time>
      </trkpt>
      <trkpt lat="47.13125" lon="-1.54787">
        <ele>16.188293457031</ele>
        <time>2022-01-02T09:23:19Z</time>
      </trkpt>
      <trkpt lat="47.13131" lon="-1.54793">
        <ele>16.536682128906</ele>
        <time>2022-01-02T09:23:26Z</time>
      </trkpt>
      <trkpt lat="47.13139" lon="-1.54799">
        <ele>16.22021484375</ele>
        <time>2022-01-02T09:23:34Z</time>
      </trkpt>
      <trkpt lat="47.13147" lon="-1.54806">
        <ele>16.390197753906</ele>
        <time>2022-01-02T09:23:42Z</time>
      </trkpt>
      <trkpt lat="47.13152" lon="-1.54814">
        <ele>16.726867675781</ele>
        <time>2022-01-02T09:23:50Z</time>
      </trkpt>
      <trkpt lat="47.13153" lon="-1.54826">
        <ele>18.422729492188</ele>
        <time>2022-01-02T09:23:59Z</time>
      </trkpt>
      <trkpt lat="47.13156" lon="-1.54814">
        <ele>18.7939453125</ele>
        <time>2022-01-02T09:24:52Z</time>
      </trkpt>
      <trkpt lat="47.13165" lon="-1.54818">
        <ele>19.501647949219</ele>
        <time>2022-01-02T09:25:03Z</time>
      </trkpt>
      <trkpt lat="47.13172" lon="-1.54824">
        <ele>19.365417480469</ele>
        <time>2022-01-02T09:25:11Z</time>
      </trkpt>
      <trkpt lat="47.1318" lon="-1.54829">
        <ele>19</ele>
        <time>2022-01-02T09:25:19Z</time>
      </trkpt>
      <trkpt lat="47.13187" lon="-1.54835">
        <ele>18.512512207031</ele>
        <time>2022-01-02T09:25:26Z</time>
      </trkpt>
      <trkpt lat="47.13194" lon="-1.54842">
        <ele>18.01708984375</ele>
        <time>2022-01-02T09:25:34Z</time>
      </trkpt>
      <trkpt lat="47.13202" lon="-1.54847">
        <ele>17.607299804688</ele>
        <time>2022-01-02T09:25:41Z</time>
      </trkpt>
      <trkpt lat="47.1321" lon="-1.54853">
        <ele>18.07568359375</ele>
        <time>2022-01-02T09:25:49Z</time>
      </trkpt>
      <trkpt lat="47.13217" lon="-1.54861">
        <ele>18.472534179688</ele>
        <time>2022-01-02T09:25:57Z</time>
      </trkpt>
      <trkpt lat="47.13224" lon="-1.54867">
        <ele>18.345520019531</ele>
        <time>2022-01-02T09:26:04Z</time>
      </trkpt>
      <trkpt lat="47.13232" lon="-1.54872">
        <ele>18.113159179688</ele>
        <time>2022-01-02T09:26:12Z</time>
      </trkpt>
      <trkpt lat="47.13239" lon="-1.54878">
        <ele>18.945678710938</ele>
        <time>2022-01-02T09:26:20Z</time>
      </trkpt>
      <trkpt lat="47.13246" lon="-1.54884">
        <ele>19.151550292969</ele>
        <time>2022-01-02T09:26:35Z</time>
      </trkpt>
      <trkpt lat="47.13253" lon="-1.54891">
        <ele>18.300048828125</ele>
        <time>2022-01-02T09:26:45Z</time>
      </trkpt>
      <trkpt lat="47.1326" lon="-1.54898">
        <ele>17.8037109375</ele>
        <time>2022-01-02T09:26:55Z</time>
      </trkpt>
      <trkpt lat="47.13266" lon="-1.54907">
        <ele>16.467346191406</ele>
        <time>2022-01-02T09:27:03Z</time>
      </trkpt>
      <trkpt lat="47.13272" lon="-1.54916">
        <ele>17.013610839844</ele>
        <time>2022-01-02T09:27:11Z</time>
      </trkpt>
      <trkpt lat="47.13276" lon="-1.54927">
        <ele>17.407409667969</ele>
        <time>2022-01-02T09:27:19Z</time>
      </trkpt>
      <trkpt lat="47.13281" lon="-1.54938">
        <ele>14.572448730469</ele>
        <time>2022-01-02T09:27:28Z</time>
      </trkpt>
      <trkpt lat="47.13285" lon="-1.54949">
        <ele>14.112670898438</ele>
        <time>2022-01-02T09:27:36Z</time>
      </trkpt>
      <trkpt lat="47.1329" lon="-1.54959">
        <ele>12.925354003906</ele>
        <time>2022-01-02T09:27:44Z</time>
      </trkpt>
      <trkpt lat="47.13294" lon="-1.5497">
        <ele>15.842834472656</ele>
        <time>2022-01-02T09:27:52Z</time>
      </trkpt>
      <trkpt lat="47.13298" lon="-1.54981">
        <ele>18.392272949219</ele>
        <time>2022-01-02T09:28:01Z</time>
      </trkpt>
      <trkpt lat="47.13304" lon="-1.54991">
        <ele>19.393005371094</ele>
        <time>2022-01-02T09:28:10Z</time>
      </trkpt>
      <trkpt lat="47.13308" lon="-1.55001">
        <ele>18.895446777344</ele>
        <time>2022-01-02T09:28:18Z</time>
      </trkpt>
      <trkpt lat="47.13312" lon="-1.55011">
        <ele>18.996948242188</ele>
        <time>2022-01-02T09:28:26Z</time>
      </trkpt>
      <trkpt lat="47.13318" lon="-1.5502">
        <ele>19.508056640625</ele>
        <time>2022-01-02T09:28:35Z</time>
      </trkpt>
      <trkpt lat="47.13322" lon="-1.55031">
        <ele>19.56689453125</ele>
        <time>2022-01-02T09:28:43Z</time>
      </trkpt>
      <trkpt lat="47.13326" lon="-1.55041">
        <ele>19.063659667969</ele>
        <time>2022-01-02T09:28:51Z</time>
      </trkpt>
      <trkpt lat="47.1333" lon="-1.55052">
        <ele>18.381652832031</ele>
        <time>2022-01-02T09:28:59Z</time>
      </trkpt>
      <trkpt lat="47.13335" lon="-1.55063">
        <ele>17.458862304688</ele>
        <time>2022-01-02T09:29:08Z</time>
      </trkpt>
      <trkpt lat="47.13339" lon="-1.55073">
        <ele>16.535095214844</ele>
        <time>2022-01-02T09:29:16Z</time>
      </trkpt>
      <trkpt lat="47.13343" lon="-1.55083">
        <ele>17.320434570312</ele>
        <time>2022-01-02T09:29:24Z</time>
      </trkpt>
      <trkpt lat="47.13348" lon="-1.55095">
        <ele>17.026611328125</ele>
        <time>2022-01-02T09:29:32Z</time>
      </trkpt>
      <trkpt lat="47.13352" lon="-1.55106">
        <ele>16.716491699219</ele>
        <time>2022-01-02T09:29:40Z</time>
      </trkpt>
      <trkpt lat="47.13356" lon="-1.55117">
        <ele>16.68310546875</ele>
        <time>2022-01-02T09:29:48Z</time>
      </trkpt>
      <trkpt lat="47.1336" lon="-1.55128">
        <ele>17.182067871094</ele>
        <time>2022-01-02T09:29:56Z</time>
      </trkpt>
      <trkpt lat="47.13363" lon="-1.55139">
        <ele>17.894287109375</ele>
        <time>2022-01-02T09:30:03Z</time>
      </trkpt>
      <trkpt lat="47.13367" lon="-1.5515">
        <ele>18.144287109375</ele>
        <time>2022-01-02T09:30:11Z</time>
      </trkpt>
      <trkpt lat="47.13371" lon="-1.55161">
        <ele>17.676330566406</ele>
        <time>2022-01-02T09:30:19Z</time>
      </trkpt>
      <trkpt lat="47.13375" lon="-1.55173">
        <ele>17.4951171875</ele>
        <time>2022-01-02T09:30:27Z</time>
      </trkpt>
      <trkpt lat="47.13378" lon="-1.55183">
        <ele>17.600708007812</ele>
        <time>2022-01-02T09:30:34Z</time>
      </trkpt>
      <trkpt lat="47.13382" lon="-1.55193">
        <ele>17.991760253906</ele>
        <time>2022-01-02T09:30:40Z</time>
      </trkpt>
      <trkpt lat="47.13386" lon="-1.55204">
        <ele>17.38525390625</ele>
        <time>2022-01-02T09:30:48Z</time>
      </trkpt>
      <trkpt lat="47.13391" lon="-1.55215">
        <ele>17.057800292969</ele>
        <time>2022-01-02T09:30:56Z</time>
      </trkpt>
      <trkpt lat="47.13395" lon="-1.55226">
        <ele>17.173278808594</ele>
        <time>2022-01-02T09:31:04Z</time>
      </trkpt>
      <trkpt lat="47.13399" lon="-1.55237">
        <ele>17.024536132812</ele>
        <time>2022-01-02T09:31:11Z</time>
      </trkpt>
      <trkpt lat="47.13404" lon="-1.55248">
        <ele>16.345336914062</ele>
        <time>2022-01-02T09:31:19Z</time>
      </trkpt>
      <trkpt lat="47.13408" lon="-1.55259">
        <ele>16.94140625</ele>
        <time>2022-01-02T09:31:27Z</time>
      </trkpt>
      <trkpt lat="47.13411" lon="-1.5527">
        <ele>16.142150878906</ele>
        <time>2022-01-02T09:31:35Z</time>
      </trkpt>
      <trkpt lat="47.13412" lon="-1.55283">
        <ele>15.10009765625</ele>
        <time>2022-01-02T09:31:43Z</time>
      </trkpt>
      <trkpt lat="47.1341" lon="-1.55295">
        <ele>16.110595703125</ele>
        <time>2022-01-02T09:31:51Z</time>
      </trkpt>
      <trkpt lat="47.13406" lon="-1.55306">
        <ele>15.211853027344</ele>
        <time>2022-01-02T09:31:59Z</time>
      </trkpt>
      <trkpt lat="47.13401" lon="-1.55315">
        <ele>15.69384765625</ele>
        <time>2022-01-02T09:32:07Z</time>
      </trkpt>
      <trkpt lat="47.13394" lon="-1.55323">
        <ele>15.812683105469</ele>
        <time>2022-01-02T09:32:15Z</time>
      </trkpt>
      <trkpt lat="47.13386" lon="-1.55323">
        <ele>17.158020019531</ele>
        <time>2022-01-02T09:32:32Z</time>
      </trkpt>
      <trkpt lat="47.1338" lon="-1.55314">
        <ele>17.871765136719</ele>
        <time>2022-01-02T09:32:42Z</time>
      </trkpt>
      <trkpt lat="47.13375" lon="-1.55304">
        <ele>18.119812011719</ele>
        <time>2022-01-02T09:32:51Z</time>
      </trkpt>
      <trkpt lat="47.13369" lon="-1.55295">
        <ele>18.174438476562</ele>
        <time>2022-01-02T09:32:59Z</time>
      </trkpt>
      <trkpt lat="47.13364" lon="-1.55285">
        <ele>17.680480957031</ele>
        <time>2022-01-02T09:33:07Z</time>
      </trkpt>
      <trkpt lat="47.13358" lon="-1.55276">
        <ele>18.342407226562</ele>
        <time>2022-01-02T09:33:15Z</time>
      </trkpt>
      <trkpt lat="47.13352" lon="-1.55268">
        <ele>18.951965332031</ele>
        <time>2022-01-02T09:33:22Z</time>
      </trkpt>
      <trkpt lat="47.13346" lon="-1.55261">
        <ele>19.31787109375</ele>
        <time>2022-01-02T09:33:29Z</time>
      </trkpt>
      <trkpt lat="47.13337" lon="-1.55256">
        <ele>18.752685546875</ele>
        <time>2022-01-02T09:33:37Z</time>
      </trkpt>
      <trkpt lat="47.13329" lon="-1.55254">
        <ele>19.741821289062</ele>
        <time>2022-01-02T09:33:44Z</time>
      </trkpt>
      <trkpt lat="47.13321" lon="-1.55253">
        <ele>20.060668945312</ele>
        <time>2022-01-02T09:33:51Z</time>
      </trkpt>
      <trkpt lat="47.13312" lon="-1.55252">
        <ele>19.796203613281</ele>
        <time>2022-01-02T09:33:59Z</time>
      </trkpt>
      <trkpt lat="47.13304" lon="-1.55252">
        <ele>19.674499511719</ele>
        <time>2022-01-02T09:34:06Z</time>
      </trkpt>
      <trkpt lat="47.13296" lon="-1.5525">
        <ele>19.053894042969</ele>
        <time>2022-01-02T09:34:14Z</time>
      </trkpt>
      <trkpt lat="47.13287" lon="-1.55251">
        <ele>18.359313964844</ele>
        <time>2022-01-02T09:34:22Z</time>
      </trkpt>
      <trkpt lat="47.13279" lon="-1.55251">
        <ele>18.04736328125</ele>
        <time>2022-01-02T09:34:29Z</time>
      </trkpt>
      <trkpt lat="47.1327" lon="-1.55251">
        <ele>17.504516601562</ele>
        <time>2022-01-02T09:34:37Z</time>
      </trkpt>
      <trkpt lat="47.13261" lon="-1.55251">
        <ele>17.423950195312</ele>
        <time>2022-01-02T09:34:45Z</time>
      </trkpt>
      <trkpt lat="47.13253" lon="-1.5525">
        <ele>16.990051269531</ele>
        <time>2022-01-02T09:34:52Z</time>
      </trkpt>
      <trkpt lat="47.13245" lon="-1.55249">
        <ele>16.710571289062</ele>
        <time>2022-01-02T09:34:59Z</time>
      </trkpt>
      <trkpt lat="47.13237" lon="-1.55248">
        <ele>19.101196289062</ele>
        <time>2022-01-02T09:35:05Z</time>
      </trkpt>
      <trkpt lat="47.13229" lon="-1.55247">
        <ele>19.590881347656</ele>
        <time>2022-01-02T09:35:12Z</time>
      </trkpt>
      <trkpt lat="47.1322" lon="-1.55244">
        <ele>19.559387207031</ele>
        <time>2022-01-02T09:35:20Z</time>
      </trkpt>
      <trkpt lat="47.13212" lon="-1.55241">
        <ele>20.009887695312</ele>
        <time>2022-01-02T09:35:28Z</time>
      </trkpt>
      <trkpt lat="47.13203" lon="-1.55238">
        <ele>19.178588867188</ele>
        <time>2022-01-02T09:35:36Z</time>
      </trkpt>
      <trkpt lat="47.13196" lon="-1.55234">
        <ele>18.332336425781</ele>
        <time>2022-01-02T09:35:43Z</time>
      </trkpt>
      <trkpt lat="47.13187" lon="-1.55232">
        <ele>18.61083984375</ele>
        <time>2022-01-02T09:35:51Z</time>
      </trkpt>
      <trkpt lat="47.13179" lon="-1.5523">
        <ele>19.220947265625</ele>
        <time>2022-01-02T09:35:59Z</time>
      </trkpt>
      <trkpt lat="47.1317" lon="-1.55228">
        <ele>19.262939453125</ele>
        <time>2022-01-02T09:36:07Z</time>
      </trkpt>
      <trkpt lat="47.13163" lon="-1.55227">
        <ele>19.744445800781</ele>
        <time>2022-01-02T09:36:14Z</time>
      </trkpt>
      <trkpt lat="47.13154" lon="-1.55226">
        <ele>20.010559082031</ele>
        <time>2022-01-02T09:36:22Z</time>
      </trkpt>
      <trkpt lat="47.13145" lon="-1.55224">
        <ele>19.156860351562</ele>
        <time>2022-01-02T09:36:30Z</time>
      </trkpt>
      <trkpt lat="47.13136" lon="-1.55223">
        <ele>19.292053222656</ele>
        <time>2022-01-02T09:36:38Z</time>
      </trkpt>
      <trkpt lat="47.13128" lon="-1.55224">
        <ele>19.750366210938</ele>
        <time>2022-01-02T09:36:45Z</time>
      </trkpt>
      <trkpt lat="47.1312" lon="-1.55223">
        <ele>19.8203125</ele>
        <time>2022-01-02T09:36:53Z</time>
      </trkpt>
      <trkpt lat="47.13112" lon="-1.55222">
        <ele>20.001647949219</ele>
        <time>2022-01-02T09:37:01Z</time>
      </trkpt>
      <trkpt lat="47.13104" lon="-1.5522">
        <ele>19.827026367188</ele>
        <time>2022-01-02T09:37:09Z</time>
      </trkpt>
      <trkpt lat="47.13095" lon="-1.55219">
        <ele>18.865295410156</ele>
        <time>2022-01-02T09:37:17Z</time>
      </trkpt>
      <trkpt lat="47.13087" lon="-1.55217">
        <ele>19.461791992188</ele>
        <time>2022-01-02T09:37:24Z</time>
      </trkpt>
      <trkpt lat="47.13079" lon="-1.55216">
        <ele>18.283447265625</ele>
        <time>2022-01-02T09:37:31Z</time>
      </trkpt>
      <trkpt lat="47.13071" lon="-1.55214">
        <ele>18.23974609375</ele>
        <time>2022-01-02T09:37:38Z</time>
      </trkpt>
      <trkpt lat="47.13063" lon="-1.55213">
        <ele>17.942687988281</ele>
        <time>2022-01-02T09:37:46Z</time>
      </trkpt>
      <trkpt lat="47.13055" lon="-1.55211">
        <ele>19.013610839844</ele>
        <time>2022-01-02T09:37:54Z</time>
      </trkpt>
      <trkpt lat="47.13046" lon="-1.5521">
        <ele>17.822509765625</ele>
        <time>2022-01-02T09:38:02Z</time>
      </trkpt>
      <trkpt lat="47.13038" lon="-1.55208">
        <ele>17.153259277344</ele>
        <time>2022-01-02T09:38:09Z</time>
      </trkpt>
      <trkpt lat="47.1303" lon="-1.55206">
        <ele>16.743225097656</ele>
        <time>2022-01-02T09:38:16Z</time>
      </trkpt>
      <trkpt lat="47.13022" lon="-1.55205">
        <ele>17.16650390625</ele>
        <time>2022-01-02T09:38:24Z</time>
      </trkpt>
      <trkpt lat="47.13013" lon="-1.55203">
        <ele>16.412231445312</ele>
        <time>2022-01-02T09:38:32Z</time>
      </trkpt>
      <trkpt lat="47.13005" lon="-1.55201">
        <ele>16.301818847656</ele>
        <time>2022-01-02T09:38:39Z</time>
      </trkpt>
      <trkpt lat="47.12996" lon="-1.552">
        <ele>15.142517089844</ele>
        <time>2022-01-02T09:38:47Z</time>
      </trkpt>
      <trkpt lat="47.12987" lon="-1.55198">
        <ele>14.856018066406</ele>
        <time>2022-01-02T09:38:55Z</time>
      </trkpt>
      <trkpt lat="47.12979" lon="-1.55198">
        <ele>14.147216796875</ele>
        <time>2022-01-02T09:39:02Z</time>
      </trkpt>
      <trkpt lat="47.1297" lon="-1.55199">
        <ele>12.807373046875</ele>
        <time>2022-01-02T09:39:10Z</time>
      </trkpt>
      <trkpt lat="47.12961" lon="-1.552">
        <ele>12.238464355469</ele>
        <time>2022-01-02T09:39:17Z</time>
      </trkpt>
      <trkpt lat="47.12954" lon="-1.55203">
        <ele>12.478515625</ele>
        <time>2022-01-02T09:39:24Z</time>
      </trkpt>
      <trkpt lat="47.12946" lon="-1.55206">
        <ele>12.5517578125</ele>
        <time>2022-01-02T09:39:31Z</time>
      </trkpt>
      <trkpt lat="47.12938" lon="-1.55209">
        <ele>13.023864746094</ele>
        <time>2022-01-02T09:39:38Z</time>
      </trkpt>
      <trkpt lat="47.1293" lon="-1.55213">
        <ele>12.354675292969</ele>
        <time>2022-01-02T09:39:46Z</time>
      </trkpt>
      <trkpt lat="47.12922" lon="-1.55219">
        <ele>12.714050292969</ele>
        <time>2022-01-02T09:39:54Z</time>
      </trkpt>
      <trkpt lat="47.12915" lon="-1.55224">
        <ele>11.757080078125</ele>
        <time>2022-01-02T09:40:01Z</time>
      </trkpt>
      <trkpt lat="47.12906" lon="-1.55229">
        <ele>12.098083496094</ele>
        <time>2022-01-02T09:40:08Z</time>
      </trkpt>
      <trkpt lat="47.12899" lon="-1.55234">
        <ele>11.847900390625</ele>
        <time>2022-01-02T09:40:15Z</time>
      </trkpt>
      <trkpt lat="47.12892" lon="-1.55241">
        <ele>11.39404296875</ele>
        <time>2022-01-02T09:40:22Z</time>
      </trkpt>
      <trkpt lat="47.12885" lon="-1.55248">
        <ele>11.84326171875</ele>
        <time>2022-01-02T09:40:30Z</time>
      </trkpt>
      <trkpt lat="47.12878" lon="-1.55254">
        <ele>11.051574707031</ele>
        <time>2022-01-02T09:40:37Z</time>
      </trkpt>
      <trkpt lat="47.12871" lon="-1.55262">
        <ele>10.92041015625</ele>
        <time>2022-01-02T09:40:45Z</time>
      </trkpt>
      <trkpt lat="47.12864" lon="-1.5527">
        <ele>11.483337402344</ele>
        <time>2022-01-02T09:40:53Z</time>
      </trkpt>
      <trkpt lat="47.12858" lon="-1.55279">
        <ele>10.597290039062</ele>
        <time>2022-01-02T09:41:01Z</time>
      </trkpt>
      <trkpt lat="47.12851" lon="-1.55284">
        <ele>10.323608398438</ele>
        <time>2022-01-02T09:41:08Z</time>
      </trkpt>
      <trkpt lat="47.12844" lon="-1.5529">
        <ele>10.162902832031</ele>
        <time>2022-01-02T09:41:15Z</time>
      </trkpt>
      <trkpt lat="47.12838" lon="-1.55297">
        <ele>9.165771484375</ele>
        <time>2022-01-02T09:41:22Z</time>
      </trkpt>
      <trkpt lat="47.12831" lon="-1.55304">
        <ele>9.3234252929688</ele>
        <time>2022-01-02T09:41:29Z</time>
      </trkpt>
      <trkpt lat="47.12824" lon="-1.55311">
        <ele>10.474487304688</ele>
        <time>2022-01-02T09:41:36Z</time>
      </trkpt>
      <trkpt lat="47.12817" lon="-1.55318">
        <ele>10.29931640625</ele>
        <time>2022-01-02T09:41:44Z</time>
      </trkpt>
      <trkpt lat="47.12809" lon="-1.55324">
        <ele>10.562194824219</ele>
        <time>2022-01-02T09:41:52Z</time>
      </trkpt>
      <trkpt lat="47.12802" lon="-1.5533">
        <ele>9.8118286132812</ele>
        <time>2022-01-02T09:42:00Z</time>
      </trkpt>
      <trkpt lat="47.12794" lon="-1.55336">
        <ele>9.625244140625</ele>
        <time>2022-01-02T09:42:08Z</time>
      </trkpt>
      <trkpt lat="47.12786" lon="-1.55342">
        <ele>10.126831054688</ele>
        <time>2022-01-02T09:42:16Z</time>
      </trkpt>
      <trkpt lat="47.12779" lon="-1.55347">
        <ele>9.7078857421875</ele>
        <time>2022-01-02T09:42:23Z</time>
      </trkpt>
      <trkpt lat="47.12772" lon="-1.55353">
        <ele>9.0457153320312</ele>
        <time>2022-01-02T09:42:30Z</time>
      </trkpt>
      <trkpt lat="47.12764" lon="-1.55357">
        <ele>8.515380859375</ele>
        <time>2022-01-02T09:42:37Z</time>
      </trkpt>
      <trkpt lat="47.12756" lon="-1.55361">
        <ele>7.8355712890625</ele>
        <time>2022-01-02T09:42:44Z</time>
      </trkpt>
      <trkpt lat="47.12749" lon="-1.55366">
        <ele>8.489990234375</ele>
        <time>2022-01-02T09:42:51Z</time>
      </trkpt>
      <trkpt lat="47.12741" lon="-1.55369">
        <ele>8.7594604492188</ele>
        <time>2022-01-02T09:42:58Z</time>
      </trkpt>
      <trkpt lat="47.12733" lon="-1.55373">
        <ele>8.04345703125</ele>
        <time>2022-01-02T09:43:06Z</time>
      </trkpt>
      <trkpt lat="47.12726" lon="-1.55382">
        <ele>7.7197265625</ele>
        <time>2022-01-02T09:43:14Z</time>
      </trkpt>
      <trkpt lat="47.12726" lon="-1.55394">
        <ele>5.9658203125</ele>
        <time>2022-01-02T09:43:22Z</time>
      </trkpt>
      <trkpt lat="47.12727" lon="-1.55407">
        <ele>5.9461669921875</ele>
        <time>2022-01-02T09:43:30Z</time>
      </trkpt>
      <trkpt lat="47.12729" lon="-1.55419">
        <ele>6.4193725585938</ele>
        <time>2022-01-02T09:43:37Z</time>
      </trkpt>
      <trkpt lat="47.1273" lon="-1.5543">
        <ele>7.0350341796875</ele>
        <time>2022-01-02T09:43:44Z</time>
      </trkpt>
      <trkpt lat="47.12732" lon="-1.55442">
        <ele>7.080322265625</ele>
        <time>2022-01-02T09:43:51Z</time>
      </trkpt>
      <trkpt lat="47.12735" lon="-1.55452">
        <ele>6.9527587890625</ele>
        <time>2022-01-02T09:43:58Z</time>
      </trkpt>
      <trkpt lat="47.12739" lon="-1.55463">
        <ele>6.921630859375</ele>
        <time>2022-01-02T09:44:05Z</time>
      </trkpt>
      <trkpt lat="47.12741" lon="-1.55475">
        <ele>7.1571044921875</ele>
        <time>2022-01-02T09:44:13Z</time>
      </trkpt>
      <trkpt lat="47.12745" lon="-1.55487">
        <ele>6.942626953125</ele>
        <time>2022-01-02T09:44:21Z</time>
      </trkpt>
      <trkpt lat="47.12749" lon="-1.55497">
        <ele>7.3740234375</ele>
        <time>2022-01-02T09:44:28Z</time>
      </trkpt>
      <trkpt lat="47.12752" lon="-1.55509">
        <ele>6.5924072265625</ele>
        <time>2022-01-02T09:44:35Z</time>
      </trkpt>
      <trkpt lat="47.12757" lon="-1.5552">
        <ele>6.5899047851562</ele>
        <time>2022-01-02T09:44:43Z</time>
      </trkpt>
      <trkpt lat="47.12762" lon="-1.5553">
        <ele>6.5480346679688</ele>
        <time>2022-01-02T09:44:51Z</time>
      </trkpt>
      <trkpt lat="47.12765" lon="-1.55541">
        <ele>6.9884643554688</ele>
        <time>2022-01-02T09:44:58Z</time>
      </trkpt>
      <trkpt lat="47.1277" lon="-1.55551">
        <ele>6.8613891601562</ele>
        <time>2022-01-02T09:45:05Z</time>
      </trkpt>
      <trkpt lat="47.12773" lon="-1.55562">
        <ele>6.6818237304688</ele>
        <time>2022-01-02T09:45:12Z</time>
      </trkpt>
      <trkpt lat="47.12778" lon="-1.55574">
        <ele>7.1630859375</ele>
        <time>2022-01-02T09:45:20Z</time>
      </trkpt>
      <trkpt lat="47.12782" lon="-1.55585">
        <ele>7.7373046875</ele>
        <time>2022-01-02T09:45:28Z</time>
      </trkpt>
      <trkpt lat="47.12787" lon="-1.55597">
        <ele>8.3965454101562</ele>
        <time>2022-01-02T09:45:36Z</time>
      </trkpt>
      <trkpt lat="47.12792" lon="-1.55607">
        <ele>7.7591552734375</ele>
        <time>2022-01-02T09:45:44Z</time>
      </trkpt>
      <trkpt lat="47.12796" lon="-1.55619">
        <ele>7.3800659179688</ele>
        <time>2022-01-02T09:45:52Z</time>
      </trkpt>
      <trkpt lat="47.128" lon="-1.55629">
        <ele>7.725341796875</ele>
        <time>2022-01-02T09:45:59Z</time>
      </trkpt>
      <trkpt lat="47.12804" lon="-1.5564">
        <ele>7.8577270507812</ele>
        <time>2022-01-02T09:46:07Z</time>
      </trkpt>
      <trkpt lat="47.12808" lon="-1.55652">
        <ele>6.9701538085938</ele>
        <time>2022-01-02T09:46:15Z</time>
      </trkpt>
      <trkpt lat="47.12812" lon="-1.55663">
        <ele>7.3776245117188</ele>
        <time>2022-01-02T09:46:22Z</time>
      </trkpt>
      <trkpt lat="47.12815" lon="-1.55674">
        <ele>7.1949462890625</ele>
        <time>2022-01-02T09:46:30Z</time>
      </trkpt>
      <trkpt lat="47.12819" lon="-1.55685">
        <ele>6.9883422851562</ele>
        <time>2022-01-02T09:46:37Z</time>
      </trkpt>
      <trkpt lat="47.12823" lon="-1.55695">
        <ele>6.6691284179688</ele>
        <time>2022-01-02T09:46:44Z</time>
      </trkpt>
      <trkpt lat="47.12828" lon="-1.55706">
        <ele>6.6165161132812</ele>
        <time>2022-01-02T09:46:52Z</time>
      </trkpt>
      <trkpt lat="47.12831" lon="-1.55717">
        <ele>6.4049072265625</ele>
        <time>2022-01-02T09:46:59Z</time>
      </trkpt>
      <trkpt lat="47.12835" lon="-1.55729">
        <ele>6.82763671875</ele>
        <time>2022-01-02T09:47:07Z</time>
      </trkpt>
      <trkpt lat="47.12837" lon="-1.55741">
        <ele>6.7318115234375</ele>
        <time>2022-01-02T09:47:15Z</time>
      </trkpt>
      <trkpt lat="47.12839" lon="-1.55754">
        <ele>7.2496948242188</ele>
        <time>2022-01-02T09:47:23Z</time>
      </trkpt>
      <trkpt lat="47.12842" lon="-1.55766">
        <ele>6.8532104492188</ele>
        <time>2022-01-02T09:47:31Z</time>
      </trkpt>
      <trkpt lat="47.12843" lon="-1.55779">
        <ele>6.8629150390625</ele>
        <time>2022-01-02T09:47:39Z</time>
      </trkpt>
      <trkpt lat="47.12845" lon="-1.55791">
        <ele>7.8403930664062</ele>
        <time>2022-01-02T09:47:47Z</time>
      </trkpt>
      <trkpt lat="47.12847" lon="-1.55803">
        <ele>8.1173706054688</ele>
        <time>2022-01-02T09:47:54Z</time>
      </trkpt>
      <trkpt lat="47.12848" lon="-1.55816">
        <ele>7.585205078125</ele>
        <time>2022-01-02T09:48:02Z</time>
      </trkpt>
      <trkpt lat="47.12849" lon="-1.55828">
        <ele>6.696533203125</ele>
        <time>2022-01-02T09:48:10Z</time>
      </trkpt>
      <trkpt lat="47.12852" lon="-1.55839">
        <ele>6.7186279296875</ele>
        <time>2022-01-02T09:48:17Z</time>
      </trkpt>
      <trkpt lat="47.12852" lon="-1.55852">
        <ele>6.7311401367188</ele>
        <time>2022-01-02T09:48:25Z</time>
      </trkpt>
      <trkpt lat="47.12852" lon="-1.55865">
        <ele>6.9508666992188</ele>
        <time>2022-01-02T09:48:33Z</time>
      </trkpt>
      <trkpt lat="47.12852" lon="-1.55878">
        <ele>5.8005981445312</ele>
        <time>2022-01-02T09:48:41Z</time>
      </trkpt>
      <trkpt lat="47.12854" lon="-1.55891">
        <ele>5.6806640625</ele>
        <time>2022-01-02T09:48:49Z</time>
      </trkpt>
      <trkpt lat="47.12854" lon="-1.55902">
        <ele>5.6030883789062</ele>
        <time>2022-01-02T09:48:56Z</time>
      </trkpt>
      <trkpt lat="47.12855" lon="-1.55914">
        <ele>5.9935913085938</ele>
        <time>2022-01-02T09:49:03Z</time>
      </trkpt>
      <trkpt lat="47.12857" lon="-1.55925">
        <ele>6.386962890625</ele>
        <time>2022-01-02T09:49:10Z</time>
      </trkpt>
      <trkpt lat="47.12858" lon="-1.55937">
        <ele>6.9732055664062</ele>
        <time>2022-01-02T09:49:17Z</time>
      </trkpt>
      <trkpt lat="47.12859" lon="-1.55949">
        <ele>9.1066284179688</ele>
        <time>2022-01-02T09:49:24Z</time>
      </trkpt>
      <trkpt lat="47.12861" lon="-1.55961">
        <ele>9.9982299804688</ele>
        <time>2022-01-02T09:49:31Z</time>
      </trkpt>
      <trkpt lat="47.12862" lon="-1.55973">
        <ele>9.5896606445312</ele>
        <time>2022-01-02T09:49:38Z</time>
      </trkpt>
      <trkpt lat="47.1286" lon="-1.55984">
        <ele>10.3017578125</ele>
        <time>2022-01-02T09:49:47Z</time>
      </trkpt>
      <trkpt lat="47.12863" lon="-1.55996">
        <ele>10.693481445312</ele>
        <time>2022-01-02T09:49:55Z</time>
      </trkpt>
      <trkpt lat="47.12866" lon="-1.56008">
        <ele>10.370971679688</ele>
        <time>2022-01-02T09:50:03Z</time>
      </trkpt>
      <trkpt lat="47.12869" lon="-1.56021">
        <ele>11.454284667969</ele>
        <time>2022-01-02T09:50:11Z</time>
      </trkpt>
      <trkpt lat="47.12871" lon="-1.56033">
        <ele>11.572387695312</ele>
        <time>2022-01-02T09:50:19Z</time>
      </trkpt>
      <trkpt lat="47.12873" lon="-1.56046">
        <ele>10.938171386719</ele>
        <time>2022-01-02T09:50:27Z</time>
      </trkpt>
      <trkpt lat="47.12875" lon="-1.56058">
        <ele>11.294006347656</ele>
        <time>2022-01-02T09:50:35Z</time>
      </trkpt>
      <trkpt lat="47.12877" lon="-1.5607">
        <ele>11.881896972656</ele>
        <time>2022-01-02T09:50:42Z</time>
      </trkpt>
      <trkpt lat="47.12879" lon="-1.56082">
        <ele>11.873413085938</ele>
        <time>2022-01-02T09:50:50Z</time>
      </trkpt>
      <trkpt lat="47.1288" lon="-1.56094">
        <ele>12.363708496094</ele>
        <time>2022-01-02T09:50:57Z</time>
      </trkpt>
      <trkpt lat="47.12881" lon="-1.56105">
        <ele>13.224731445312</ele>
        <time>2022-01-02T09:51:04Z</time>
      </trkpt>
      <trkpt lat="47.12883" lon="-1.56118">
        <ele>12.712158203125</ele>
        <time>2022-01-02T09:51:12Z</time>
      </trkpt>
      <trkpt lat="47.12886" lon="-1.56129">
        <ele>13.158020019531</ele>
        <time>2022-01-02T09:51:19Z</time>
      </trkpt>
      <trkpt lat="47.12888" lon="-1.56142">
        <ele>12.90185546875</ele>
        <time>2022-01-02T09:51:27Z</time>
      </trkpt>
      <trkpt lat="47.12891" lon="-1.56154">
        <ele>12.236389160156</ele>
        <time>2022-01-02T09:51:35Z</time>
      </trkpt>
      <trkpt lat="47.12895" lon="-1.56165">
        <ele>12.485473632812</ele>
        <time>2022-01-02T09:51:42Z</time>
      </trkpt>
      <trkpt lat="47.12898" lon="-1.56176">
        <ele>13.858947753906</ele>
        <time>2022-01-02T09:51:49Z</time>
      </trkpt>
      <trkpt lat="47.12901" lon="-1.56187">
        <ele>13.683715820312</ele>
        <time>2022-01-02T09:51:56Z</time>
      </trkpt>
      <trkpt lat="47.12904" lon="-1.56199">
        <ele>13.96923828125</ele>
        <time>2022-01-02T09:52:03Z</time>
      </trkpt>
      <trkpt lat="47.12907" lon="-1.5621">
        <ele>13.320068359375</ele>
        <time>2022-01-02T09:52:10Z</time>
      </trkpt>
      <trkpt lat="47.12909" lon="-1.56221">
        <ele>13.67822265625</ele>
        <time>2022-01-02T09:52:17Z</time>
      </trkpt>
      <trkpt lat="47.12912" lon="-1.56232">
        <ele>14.496887207031</ele>
        <time>2022-01-02T09:52:24Z</time>
      </trkpt>
      <trkpt lat="47.12915" lon="-1.56243">
        <ele>14.923828125</ele>
        <time>2022-01-02T09:52:31Z</time>
      </trkpt>
      <trkpt lat="47.12917" lon="-1.56256">
        <ele>14.550720214844</ele>
        <time>2022-01-02T09:52:39Z</time>
      </trkpt>
      <trkpt lat="47.12919" lon="-1.56268">
        <ele>14.946716308594</ele>
        <time>2022-01-02T09:52:47Z</time>
      </trkpt>
      <trkpt lat="47.12921" lon="-1.56281">
        <ele>13.907165527344</ele>
        <time>2022-01-02T09:52:55Z</time>
      </trkpt>
      <trkpt lat="47.12923" lon="-1.56293">
        <ele>12.888244628906</ele>
        <time>2022-01-02T09:53:03Z</time>
      </trkpt>
      <trkpt lat="47.12924" lon="-1.56305">
        <ele>12.291931152344</ele>
        <time>2022-01-02T09:53:11Z</time>
      </trkpt>
      <trkpt lat="47.12925" lon="-1.56318">
        <ele>12.028259277344</ele>
        <time>2022-01-02T09:53:19Z</time>
      </trkpt>
      <trkpt lat="47.12924" lon="-1.5633">
        <ele>12.573486328125</ele>
        <time>2022-01-02T09:53:26Z</time>
      </trkpt>
      <trkpt lat="47.12924" lon="-1.56343">
        <ele>14.089904785156</ele>
        <time>2022-01-02T09:53:34Z</time>
      </trkpt>
      <trkpt lat="47.12924" lon="-1.56356">
        <ele>13.162475585938</ele>
        <time>2022-01-02T09:53:42Z</time>
      </trkpt>
      <trkpt lat="47.12924" lon="-1.56369">
        <ele>14.25830078125</ele>
        <time>2022-01-02T09:53:48Z</time>
      </trkpt>
      <trkpt lat="47.12924" lon="-1.56382">
        <ele>13.453979492188</ele>
        <time>2022-01-02T09:53:56Z</time>
      </trkpt>
      <trkpt lat="47.12924" lon="-1.56394">
        <ele>13.49169921875</ele>
        <time>2022-01-02T09:54:03Z</time>
      </trkpt>
      <trkpt lat="47.12924" lon="-1.56406">
        <ele>13.296264648438</ele>
        <time>2022-01-02T09:54:10Z</time>
      </trkpt>
      <trkpt lat="47.12923" lon="-1.56417">
        <ele>12.871704101562</ele>
        <time>2022-01-02T09:54:17Z</time>
      </trkpt>
      <trkpt lat="47.12925" lon="-1.56429">
        <ele>13.088623046875</ele>
        <time>2022-01-02T09:54:24Z</time>
      </trkpt>
      <trkpt lat="47.12925" lon="-1.56442">
        <ele>12.897888183594</ele>
        <time>2022-01-02T09:54:32Z</time>
      </trkpt>
      <trkpt lat="47.12924" lon="-1.56454">
        <ele>13.053100585938</ele>
        <time>2022-01-02T09:54:40Z</time>
      </trkpt>
      <trkpt lat="47.12925" lon="-1.56467">
        <ele>13.260986328125</ele>
        <time>2022-01-02T09:54:47Z</time>
      </trkpt>
      <trkpt lat="47.12925" lon="-1.5648">
        <ele>13.089904785156</ele>
        <time>2022-01-02T09:54:55Z</time>
      </trkpt>
      <trkpt lat="47.12925" lon="-1.56493">
        <ele>12.368835449219</ele>
        <time>2022-01-02T09:55:04Z</time>
      </trkpt>
      <trkpt lat="47.12924" lon="-1.56505">
        <ele>12.482421875</ele>
        <time>2022-01-02T09:55:11Z</time>
      </trkpt>
      <trkpt lat="47.12925" lon="-1.56518">
        <ele>11.597778320312</ele>
        <time>2022-01-02T09:55:19Z</time>
      </trkpt>
      <trkpt lat="47.12924" lon="-1.5653">
        <ele>10.999877929688</ele>
        <time>2022-01-02T09:55:27Z</time>
      </trkpt>
      <trkpt lat="47.12924" lon="-1.56543">
        <ele>10.652465820312</ele>
        <time>2022-01-02T09:55:35Z</time>
      </trkpt>
      <trkpt lat="47.12924" lon="-1.56555">
        <ele>11.566101074219</ele>
        <time>2022-01-02T09:55:42Z</time>
      </trkpt>
      <trkpt lat="47.12923" lon="-1.56567">
        <ele>11.295104980469</ele>
        <time>2022-01-02T09:55:49Z</time>
      </trkpt>
      <trkpt lat="47.12922" lon="-1.5658">
        <ele>11.762634277344</ele>
        <time>2022-01-02T09:55:56Z</time>
      </trkpt>
      <trkpt lat="47.1292" lon="-1.56591">
        <ele>11.587829589844</ele>
        <time>2022-01-02T09:56:03Z</time>
      </trkpt>
      <trkpt lat="47.12918" lon="-1.56602">
        <ele>11.917724609375</ele>
        <time>2022-01-02T09:56:10Z</time>
      </trkpt>
      <trkpt lat="47.12914" lon="-1.56613">
        <ele>11.186950683594</ele>
        <time>2022-01-02T09:56:17Z</time>
      </trkpt>
      <trkpt lat="47.1291" lon="-1.56624">
        <ele>11.420043945312</ele>
        <time>2022-01-02T09:56:25Z</time>
      </trkpt>
      <trkpt lat="47.12905" lon="-1.56633">
        <ele>12.148071289062</ele>
        <time>2022-01-02T09:56:32Z</time>
      </trkpt>
      <trkpt lat="47.12901" lon="-1.56644">
        <ele>13.588745117188</ele>
        <time>2022-01-02T09:56:38Z</time>
      </trkpt>
      <trkpt lat="47.12896" lon="-1.56653">
        <ele>12.95654296875</ele>
        <time>2022-01-02T09:56:44Z</time>
      </trkpt>
      <trkpt lat="47.12892" lon="-1.56664">
        <ele>12.788635253906</ele>
        <time>2022-01-02T09:56:51Z</time>
      </trkpt>
      <trkpt lat="47.12889" lon="-1.56675">
        <ele>12.863403320312</ele>
        <time>2022-01-02T09:56:58Z</time>
      </trkpt>
      <trkpt lat="47.12887" lon="-1.56687">
        <ele>13.245849609375</ele>
        <time>2022-01-02T09:57:06Z</time>
      </trkpt>
      <trkpt lat="47.12887" lon="-1.567">
        <ele>12.905395507812</ele>
        <time>2022-01-02T09:57:22Z</time>
      </trkpt>
      <trkpt lat="47.12884" lon="-1.5671">
        <ele>12.904113769531</ele>
        <time>2022-01-02T09:57:31Z</time>
      </trkpt>
      <trkpt lat="47.12884" lon="-1.56723">
        <ele>14.066345214844</ele>
        <time>2022-01-02T09:58:05Z</time>
      </trkpt>
      <trkpt lat="47.1288" lon="-1.56734">
        <ele>11.755126953125</ele>
        <time>2022-01-02T09:58:15Z</time>
      </trkpt>
      <trkpt lat="47.12877" lon="-1.56745">
        <ele>11.559814453125</ele>
        <time>2022-01-02T09:58:25Z</time>
      </trkpt>
      <trkpt lat="47.12874" lon="-1.56757">
        <ele>11.124633789062</ele>
        <time>2022-01-02T09:58:33Z</time>
      </trkpt>
      <trkpt lat="47.12872" lon="-1.56768">
        <ele>11.2109375</ele>
        <time>2022-01-02T09:58:41Z</time>
      </trkpt>
      <trkpt lat="47.1287" lon="-1.5678">
        <ele>11.378295898438</ele>
        <time>2022-01-02T09:58:49Z</time>
      </trkpt>
      <trkpt lat="47.12868" lon="-1.56793">
        <ele>10.755004882812</ele>
        <time>2022-01-02T09:58:57Z</time>
      </trkpt>
      <trkpt lat="47.12867" lon="-1.56804">
        <ele>10.454223632812</ele>
        <time>2022-01-02T09:59:04Z</time>
      </trkpt>
      <trkpt lat="47.12865" lon="-1.56816">
        <ele>9.410400390625</ele>
        <time>2022-01-02T09:59:12Z</time>
      </trkpt>
      <trkpt lat="47.12866" lon="-1.56829">
        <ele>8.7044677734375</ele>
        <time>2022-01-02T09:59:20Z</time>
      </trkpt>
      <trkpt lat="47.12865" lon="-1.56842">
        <ele>7.7009887695312</ele>
        <time>2022-01-02T09:59:28Z</time>
      </trkpt>
      <trkpt lat="47.12865" lon="-1.56855">
        <ele>6.2854614257812</ele>
        <time>2022-01-02T09:59:36Z</time>
      </trkpt>
      <trkpt lat="47.12868" lon="-1.56867">
        <ele>7.4876708984375</ele>
        <time>2022-01-02T09:59:43Z</time>
      </trkpt>
      <trkpt lat="47.12869" lon="-1.5688">
        <ele>7.8929443359375</ele>
        <time>2022-01-02T09:59:50Z</time>
      </trkpt>
      <trkpt lat="47.1287" lon="-1.56893">
        <ele>8.5974731445312</ele>
        <time>2022-01-02T09:59:58Z</time>
      </trkpt>
      <trkpt lat="47.12871" lon="-1.56905">
        <ele>7.8648071289062</ele>
        <time>2022-01-02T10:00:06Z</time>
      </trkpt>
      <trkpt lat="47.12874" lon="-1.56918">
        <ele>7.8584594726562</ele>
        <time>2022-01-02T10:00:14Z</time>
      </trkpt>
      <trkpt lat="47.12876" lon="-1.5693">
        <ele>7.3391723632812</ele>
        <time>2022-01-02T10:00:22Z</time>
      </trkpt>
      <trkpt lat="47.12877" lon="-1.56943">
        <ele>7.1013793945312</ele>
        <time>2022-01-02T10:00:36Z</time>
      </trkpt>
      <trkpt lat="47.12879" lon="-1.56954">
        <ele>7.8482666015625</ele>
        <time>2022-01-02T10:00:43Z</time>
      </trkpt>
      <trkpt lat="47.1288" lon="-1.56966">
        <ele>7.34912109375</ele>
        <time>2022-01-02T10:00:51Z</time>
      </trkpt>
      <trkpt lat="47.12881" lon="-1.56979">
        <ele>7.941162109375</ele>
        <time>2022-01-02T10:00:59Z</time>
      </trkpt>
      <trkpt lat="47.12883" lon="-1.56991">
        <ele>7.5814819335938</ele>
        <time>2022-01-02T10:01:07Z</time>
      </trkpt>
      <trkpt lat="47.12885" lon="-1.57004">
        <ele>7.917724609375</ele>
        <time>2022-01-02T10:01:15Z</time>
      </trkpt>
      <trkpt lat="47.12887" lon="-1.57017">
        <ele>6.5909423828125</ele>
        <time>2022-01-02T10:01:23Z</time>
      </trkpt>
      <trkpt lat="47.12889" lon="-1.57028">
        <ele>6.467041015625</ele>
        <time>2022-01-02T10:01:30Z</time>
      </trkpt>
      <trkpt lat="47.12891" lon="-1.5704">
        <ele>7.0306396484375</ele>
        <time>2022-01-02T10:01:37Z</time>
      </trkpt>
      <trkpt lat="47.12893" lon="-1.57052">
        <ele>6.3741455078125</ele>
        <time>2022-01-02T10:01:45Z</time>
      </trkpt>
      <trkpt lat="47.12895" lon="-1.57065">
        <ele>6.7077026367188</ele>
        <time>2022-01-02T10:01:53Z</time>
      </trkpt>
      <trkpt lat="47.12897" lon="-1.57077">
        <ele>5.7426147460938</ele>
        <time>2022-01-02T10:02:01Z</time>
      </trkpt>
      <trkpt lat="47.12898" lon="-1.5709">
        <ele>5.7553100585938</ele>
        <time>2022-01-02T10:02:09Z</time>
      </trkpt>
      <trkpt lat="47.129" lon="-1.57102">
        <ele>6.5813598632812</ele>
        <time>2022-01-02T10:02:16Z</time>
      </trkpt>
      <trkpt lat="47.12902" lon="-1.57115">
        <ele>6.5506591796875</ele>
        <time>2022-01-02T10:02:24Z</time>
      </trkpt>
      <trkpt lat="47.12902" lon="-1.57127">
        <ele>6.3839111328125</ele>
        <time>2022-01-02T10:02:32Z</time>
      </trkpt>
      <trkpt lat="47.12902" lon="-1.5714">
        <ele>5.9652709960938</ele>
        <time>2022-01-02T10:02:40Z</time>
      </trkpt>
      <trkpt lat="47.12901" lon="-1.57153">
        <ele>6.5366821289062</ele>
        <time>2022-01-02T10:02:47Z</time>
      </trkpt>
      <trkpt lat="47.12899" lon="-1.57165">
        <ele>6.0714721679688</ele>
        <time>2022-01-02T10:02:55Z</time>
      </trkpt>
      <trkpt lat="47.12897" lon="-1.57177">
        <ele>4.9093017578125</ele>
        <time>2022-01-02T10:03:03Z</time>
      </trkpt>
      <trkpt lat="47.12896" lon="-1.57189">
        <ele>5.112548828125</ele>
        <time>2022-01-02T10:03:11Z</time>
      </trkpt>
      <trkpt lat="47.12894" lon="-1.57201">
        <ele>5.0438842773438</ele>
        <time>2022-01-02T10:03:19Z</time>
      </trkpt>
      <trkpt lat="47.12893" lon="-1.57213">
        <ele>3.8646240234375</ele>
        <time>2022-01-02T10:03:27Z</time>
      </trkpt>
      <trkpt lat="47.12892" lon="-1.57226">
        <ele>2.7752075195312</ele>
        <time>2022-01-02T10:03:35Z</time>
      </trkpt>
      <trkpt lat="47.1289" lon="-1.57238">
        <ele>3.5125732421875</ele>
        <time>2022-01-02T10:03:43Z</time>
      </trkpt>
      <trkpt lat="47.12888" lon="-1.57251">
        <ele>2.4360961914062</ele>
        <time>2022-01-02T10:03:51Z</time>
      </trkpt>
      <trkpt lat="47.12886" lon="-1.57263">
        <ele>2.1549682617188</ele>
        <time>2022-01-02T10:03:59Z</time>
      </trkpt>
      <trkpt lat="47.12884" lon="-1.57275">
        <ele>2.0078125</ele>
        <time>2022-01-02T10:04:07Z</time>
      </trkpt>
      <trkpt lat="47.12883" lon="-1.57287">
        <ele>1.9448852539062</ele>
        <time>2022-01-02T10:04:15Z</time>
      </trkpt>
      <trkpt lat="47.12881" lon="-1.57299">
        <ele>2.5108642578125</ele>
        <time>2022-01-02T10:04:23Z</time>
      </trkpt>
      <trkpt lat="47.1288" lon="-1.57311">
        <ele>2.1904907226562</ele>
        <time>2022-01-02T10:04:31Z</time>
      </trkpt>
      <trkpt lat="47.12878" lon="-1.57323">
        <ele>2.8927001953125</ele>
        <time>2022-01-02T10:04:39Z</time>
      </trkpt>
      <trkpt lat="47.12876" lon="-1.57336">
        <ele>3.0790405273438</ele>
        <time>2022-01-02T10:04:47Z</time>
      </trkpt>
      <trkpt lat="47.12874" lon="-1.57349">
        <ele>2.6746826171875</ele>
        <time>2022-01-02T10:04:55Z</time>
      </trkpt>
      <trkpt lat="47.12872" lon="-1.5736">
        <ele>3.5335693359375</ele>
        <time>2022-01-02T10:05:03Z</time>
      </trkpt>
      <trkpt lat="47.1287" lon="-1.57374">
        <ele>3.4965209960938</ele>
        <time>2022-01-02T10:05:11Z</time>
      </trkpt>
      <trkpt lat="47.12869" lon="-1.57386">
        <ele>2.82861328125</ele>
        <time>2022-01-02T10:05:19Z</time>
      </trkpt>
      <trkpt lat="47.12866" lon="-1.57398">
        <ele>3.2052001953125</ele>
        <time>2022-01-02T10:05:27Z</time>
      </trkpt>
      <trkpt lat="47.12865" lon="-1.5741">
        <ele>3.5122680664062</ele>
        <time>2022-01-02T10:05:35Z</time>
      </trkpt>
      <trkpt lat="47.12864" lon="-1.57423">
        <ele>3.7691040039062</ele>
        <time>2022-01-02T10:05:43Z</time>
      </trkpt>
      <trkpt lat="47.12862" lon="-1.57435">
        <ele>4.2490844726562</ele>
        <time>2022-01-02T10:05:50Z</time>
      </trkpt>
      <trkpt lat="47.1286" lon="-1.57448">
        <ele>3.8109741210938</ele>
        <time>2022-01-02T10:05:58Z</time>
      </trkpt>
      <trkpt lat="47.1286" lon="-1.57459">
        <ele>4.608154296875</ele>
        <time>2022-01-02T10:06:05Z</time>
      </trkpt>
      <trkpt lat="47.12858" lon="-1.57471">
        <ele>5.2388305664062</ele>
        <time>2022-01-02T10:06:12Z</time>
      </trkpt>
      <trkpt lat="47.12858" lon="-1.57483">
        <ele>4.6138916015625</ele>
        <time>2022-01-02T10:06:19Z</time>
      </trkpt>
      <trkpt lat="47.12858" lon="-1.57496">
        <ele>3.8601684570312</ele>
        <time>2022-01-02T10:06:27Z</time>
      </trkpt>
      <trkpt lat="47.12857" lon="-1.57508">
        <ele>3.8465576171875</ele>
        <time>2022-01-02T10:06:34Z</time>
      </trkpt>
      <trkpt lat="47.12857" lon="-1.57521">
        <ele>2.6008911132812</ele>
        <time>2022-01-02T10:06:42Z</time>
      </trkpt>
      <trkpt lat="47.12857" lon="-1.57534">
        <ele>2.7091064453125</ele>
        <time>2022-01-02T10:06:50Z</time>
      </trkpt>
      <trkpt lat="47.12857" lon="-1.57545">
        <ele>3.015869140625</ele>
        <time>2022-01-02T10:06:57Z</time>
      </trkpt>
      <trkpt lat="47.12857" lon="-1.57558">
        <ele>2.8780517578125</ele>
        <time>2022-01-02T10:07:05Z</time>
      </trkpt>
      <trkpt lat="47.12857" lon="-1.57571">
        <ele>3.1425170898438</ele>
        <time>2022-01-02T10:07:13Z</time>
      </trkpt>
      <trkpt lat="47.12858" lon="-1.57584">
        <ele>3.86767578125</ele>
        <time>2022-01-02T10:07:21Z</time>
      </trkpt>
      <trkpt lat="47.12858" lon="-1.57597">
        <ele>4.142822265625</ele>
        <time>2022-01-02T10:07:29Z</time>
      </trkpt>
      <trkpt lat="47.12858" lon="-1.57609">
        <ele>4.787841796875</ele>
        <time>2022-01-02T10:07:37Z</time>
      </trkpt>
      <trkpt lat="47.12858" lon="-1.57622">
        <ele>5.1890258789062</ele>
        <time>2022-01-02T10:07:45Z</time>
      </trkpt>
      <trkpt lat="47.12859" lon="-1.57634">
        <ele>4.9855346679688</ele>
        <time>2022-01-02T10:07:53Z</time>
      </trkpt>
      <trkpt lat="47.1286" lon="-1.57647">
        <ele>4.180908203125</ele>
        <time>2022-01-02T10:08:01Z</time>
      </trkpt>
      <trkpt lat="47.1286" lon="-1.57659">
        <ele>4.593017578125</ele>
        <time>2022-01-02T10:08:09Z</time>
      </trkpt>
      <trkpt lat="47.12861" lon="-1.57671">
        <ele>4.1819458007812</ele>
        <time>2022-01-02T10:08:16Z</time>
      </trkpt>
      <trkpt lat="47.12863" lon="-1.57683">
        <ele>3.2723388671875</ele>
        <time>2022-01-02T10:08:24Z</time>
      </trkpt>
      <trkpt lat="47.12864" lon="-1.57696">
        <ele>1.4544067382812</ele>
        <time>2022-01-02T10:08:33Z</time>
      </trkpt>
      <trkpt lat="47.12865" lon="-1.57709">
        <ele>2.1605834960938</ele>
        <time>2022-01-02T10:08:41Z</time>
      </trkpt>
      <trkpt lat="47.12867" lon="-1.57721">
        <ele>1.3171997070312</ele>
        <time>2022-01-02T10:08:49Z</time>
      </trkpt>
      <trkpt lat="47.12869" lon="-1.57734">
        <ele>3.1624755859375</ele>
        <time>2022-01-02T10:08:57Z</time>
      </trkpt>
      <trkpt lat="47.1287" lon="-1.57746">
        <ele>2.4476928710938</ele>
        <time>2022-01-02T10:09:05Z</time>
      </trkpt>
      <trkpt lat="47.12871" lon="-1.57759">
        <ele>2.1004028320312</ele>
        <time>2022-01-02T10:09:13Z</time>
      </trkpt>
      <trkpt lat="47.12872" lon="-1.57771">
        <ele>1.194580078125</ele>
        <time>2022-01-02T10:09:21Z</time>
      </trkpt>
      <trkpt lat="47.12873" lon="-1.57783">
        <ele>2.282470703125</ele>
        <time>2022-01-02T10:09:29Z</time>
      </trkpt>
      <trkpt lat="47.12873" lon="-1.57796">
        <ele>3.4813842773438</ele>
        <time>2022-01-02T10:09:38Z</time>
      </trkpt>
      <trkpt lat="47.12865" lon="-1.578">
        <ele>3.6942749023438</ele>
        <time>2022-01-02T10:09:46Z</time>
      </trkpt>
      <trkpt lat="47.12858" lon="-1.57805">
        <ele>3.6904296875</ele>
        <time>2022-01-02T10:09:55Z</time>
      </trkpt>
      <trkpt lat="47.1285" lon="-1.57811">
        <ele>4.1143798828125</ele>
        <time>2022-01-02T10:10:04Z</time>
      </trkpt>
      <trkpt lat="47.12844" lon="-1.57819">
        <ele>4.4066772460938</ele>
        <time>2022-01-02T10:10:12Z</time>
      </trkpt>
      <trkpt lat="47.12838" lon="-1.57829">
        <ele>5.9788818359375</ele>
        <time>2022-01-02T10:10:19Z</time>
      </trkpt>
      <trkpt lat="47.12832" lon="-1.57838">
        <ele>5.7133178710938</ele>
        <time>2022-01-02T10:10:27Z</time>
      </trkpt>
      <trkpt lat="47.12825" lon="-1.57843">
        <ele>5.8055419921875</ele>
        <time>2022-01-02T10:10:36Z</time>
      </trkpt>
      <trkpt lat="47.12816" lon="-1.57847">
        <ele>6.094970703125</ele>
        <time>2022-01-02T10:10:44Z</time>
      </trkpt>
      <trkpt lat="47.12809" lon="-1.57851">
        <ele>5.238525390625</ele>
        <time>2022-01-02T10:10:51Z</time>
      </trkpt>
      <trkpt lat="47.12802" lon="-1.57855">
        <ele>5.3335571289062</ele>
        <time>2022-01-02T10:10:58Z</time>
      </trkpt>
      <trkpt lat="47.12794" lon="-1.57859">
        <ele>6.2611083984375</ele>
        <time>2022-01-02T10:11:05Z</time>
      </trkpt>
      <trkpt lat="47.12786" lon="-1.57864">
        <ele>6.857177734375</ele>
        <time>2022-01-02T10:11:13Z</time>
      </trkpt>
      <trkpt lat="47.12778" lon="-1.5787">
        <ele>7.6200561523438</ele>
        <time>2022-01-02T10:11:21Z</time>
      </trkpt>
      <trkpt lat="47.1277" lon="-1.57876">
        <ele>7.6610717773438</ele>
        <time>2022-01-02T10:11:30Z</time>
      </trkpt>
      <trkpt lat="47.12763" lon="-1.57883">
        <ele>7.9714965820312</ele>
        <time>2022-01-02T10:11:39Z</time>
      </trkpt>
      <trkpt lat="47.12756" lon="-1.5789">
        <ele>8.8182373046875</ele>
        <time>2022-01-02T10:11:47Z</time>
      </trkpt>
      <trkpt lat="47.12749" lon="-1.57897">
        <ele>10.257446289062</ele>
        <time>2022-01-02T10:11:55Z</time>
      </trkpt>
      <trkpt lat="47.12742" lon="-1.57904">
        <ele>10.976501464844</ele>
        <time>2022-01-02T10:12:03Z</time>
      </trkpt>
      <trkpt lat="47.12735" lon="-1.57911">
        <ele>11.080688476562</ele>
        <time>2022-01-02T10:12:11Z</time>
      </trkpt>
      <trkpt lat="47.12728" lon="-1.57917">
        <ele>10.877197265625</ele>
        <time>2022-01-02T10:12:19Z</time>
      </trkpt>
      <trkpt lat="47.12721" lon="-1.57924">
        <ele>11.579895019531</ele>
        <time>2022-01-02T10:12:27Z</time>
      </trkpt>
      <trkpt lat="47.12713" lon="-1.5793">
        <ele>12.250671386719</ele>
        <time>2022-01-02T10:12:36Z</time>
      </trkpt>
      <trkpt lat="47.12707" lon="-1.57938">
        <ele>11.629272460938</ele>
        <time>2022-01-02T10:12:47Z</time>
      </trkpt>
      <trkpt lat="47.127" lon="-1.57945">
        <ele>11.950134277344</ele>
        <time>2022-01-02T10:12:58Z</time>
      </trkpt>
      <trkpt lat="47.12693" lon="-1.57952">
        <ele>12.353393554688</ele>
        <time>2022-01-02T10:13:06Z</time>
      </trkpt>
      <trkpt lat="47.12688" lon="-1.57961">
        <ele>10.470581054688</ele>
        <time>2022-01-02T10:13:16Z</time>
      </trkpt>
      <trkpt lat="47.12684" lon="-1.57964">
        <ele>11.057006835938</ele>
        <time>2022-01-02T10:14:12Z</time>
      </trkpt>
      <trkpt lat="47.12684" lon="-1.57964">
        <ele>11.057006835938</ele>
        <time>2022-01-02T10:14:12Z</time>
      </trkpt>
    </trkseg>
  </trk>
</gpx>